Time,TemperatureF,DewpointF,PressureIn,WindDirection,WindDirectionDegrees,WindSpeedMPH,WindSpeedGustMPH,Humidity,HourlyPrecipIn,Conditions,Clouds,dailyrainin,SoftwareType,DateUTC
2013-01-18 00:00:00,35.9,27.8,30.31,SSE,158,3.0,5.0,72,0.00,,---,0.00,VWS V14.01,2013-01-18 06:00:00,
2013-01-18 00:30:00,36.6,28.1,30.30,SSE,158,4.0,7.0,71,0.00,,---,0.00,VWS V14.01,2013-01-18 06:30:00,
2013-01-18 01:00:00,35.2,27.8,30.31,SSE,158,4.0,7.0,74,0.00,,---,0.00,VWS V14.01,2013-01-18 07:00:00,
2013-01-18 01:30:00,35.6,27.8,30.30,SE,135,4.0,7.0,73,0.00,,---,0.00,VWS V14.01,2013-01-18 07:30:00,
2013-01-18 02:00:00,36.3,28.1,30.29,SE,135,4.0,10.0,72,0.00,,---,0.00,VWS V14.01,2013-01-18 08:00:00,
2013-01-18 02:30:00,35.8,28.0,30.29,SE,135,4.0,10.0,73,0.00,,---,0.00,VWS V14.01,2013-01-18 08:30:00,
2013-01-18 03:00:00,37.2,28.3,30.28,SSE,158,5.0,12.0,70,0.00,,---,0.00,VWS V14.01,2013-01-18 09:00:00,
2013-01-18 03:30:00,36.8,28.3,30.28,SSE,158,6.0,12.0,71,0.00,,---,0.00,VWS V14.01,2013-01-18 09:30:00,
2013-01-18 04:00:00,35.8,28.0,30.27,SSE,158,6.0,11.0,73,0.00,,---,0.00,VWS V14.01,2013-01-18 10:00:00,
2013-01-18 04:30:00,35.2,27.8,30.25,SSE,158,8.0,14.0,74,0.00,,---,0.00,VWS V14.01,2013-01-18 10:30:00,
2013-01-18 05:00:00,34.9,27.8,30.24,SSE,158,8.0,13.0,75,0.00,,---,0.00,VWS V14.01,2013-01-18 11:00:00,
2013-01-18 05:30:00,34.6,27.5,30.24,SSE,158,8.0,14.0,75,0.00,,---,0.00,VWS V14.01,2013-01-18 11:30:00,
2013-01-18 06:00:00,33.7,27.0,30.22,SSE,158,8.0,13.0,76,0.00,,---,0.00,VWS V14.01,2013-01-18 12:00:00,
2013-01-18 06:38:00,33.7,27.0,30.22,SSE,158,8.0,13.0,76,0.00,,---,0.00,VWS V14.01,2013-01-18 12:38:00,
2013-01-18 06:39:00,33.7,27.3,30.22,SSE,155,3.0,8.0,77,0.00,,---,0.00,VWS V14.01,2013-01-18 12:39:00,
2013-01-18 06:43:00,34.3,27.5,30.22,SSE,164,4.0,8.0,76,0.00,,---,0.00,VWS V14.01,2013-01-18 12:43:00,
2013-01-18 06:44:00,34.3,27.5,30.22,SSE,162,5.0,8.0,76,0.00,,---,0.00,VWS V14.01,2013-01-18 12:44:00,
2013-01-18 06:48:00,34.4,27.6,30.22,SSE,160,2.0,8.0,76,0.00,,---,0.00,VWS V14.01,2013-01-18 12:48:00,
2013-01-18 06:49:00,34.4,27.6,30.22,SSE,160,3.0,8.0,76,0.00,,---,0.00,VWS V14.01,2013-01-18 12:49:00,
2013-01-18 06:53:00,34.3,27.2,30.22,SSE,160,2.0,8.0,75,0.00,,---,0.00,VWS V14.01,2013-01-18 12:53:00,
2013-01-18 06:54:00,34.3,27.2,30.22,SSE,160,2.0,8.0,75,0.00,,---,0.00,VWS V14.01,2013-01-18 12:54:00,
2013-01-18 06:55:00,34.3,27.2,30.22,SSE,160,4.0,8.0,75,0.00,,---,0.00,VWS V14.01,2013-01-18 12:55:00,
2013-01-18 06:59:00,34.1,27.3,30.22,SSE,160,6.0,8.0,76,0.00,,---,0.00,VWS V14.01,2013-01-18 12:59:00,
2013-01-18 07:00:00,34.0,27.2,30.22,SE,145,4.0,8.0,76,0.00,,---,0.00,VWS V14.01,2013-01-18 13:00:00,
2013-01-18 07:04:00,33.8,27.0,30.22,SE,144,4.0,8.0,76,0.00,,---,0.00,VWS V14.01,2013-01-18 13:04:00,
2013-01-18 07:05:00,33.8,27.0,30.22,SE,144,4.0,8.0,76,0.00,,---,0.00,VWS V14.01,2013-01-18 13:05:00,
2013-01-18 07:09:00,33.7,27.3,30.22,SE,142,8.0,8.0,77,0.00,,---,0.00,VWS V14.01,2013-01-18 13:09:00,
2013-01-18 07:10:00,33.5,27.1,30.22,SSE,153,5.0,8.0,77,0.00,,---,0.00,VWS V14.01,2013-01-18 13:10:00,
2013-01-18 07:11:00,33.5,27.1,30.22,SSE,152,5.0,8.0,77,0.00,,---,0.00,VWS V14.01,2013-01-18 13:11:00,
2013-01-18 07:14:00,33.5,27.1,30.22,SSE,155,5.0,6.0,77,0.00,,---,0.00,VWS V14.01,2013-01-18 13:14:00,
2013-01-18 07:15:00,33.5,27.1,30.22,SSE,155,5.0,6.0,77,0.00,,---,0.00,VWS V14.01,2013-01-18 13:15:00,
2013-01-18 07:16:00,33.5,27.1,30.22,SSE,165,6.0,6.0,77,0.00,,---,0.00,VWS V14.01,2013-01-18 13:16:00,
2013-01-18 07:19:00,33.5,27.1,30.22,SSE,149,4.0,8.0,77,0.00,,---,0.00,VWS V14.01,2013-01-18 13:19:00,
2013-01-18 07:20:00,33.5,27.1,30.22,SSE,157,5.0,8.0,77,0.00,,---,0.00,VWS V14.01,2013-01-18 13:20:00,
2013-01-18 07:21:00,33.5,27.1,30.22,SSE,155,4.0,8.0,77,0.00,,---,0.00,VWS V14.01,2013-01-18 13:21:00,
2013-01-18 07:24:00,33.5,27.1,30.22,SE,146,6.0,11.0,77,0.00,,---,0.00,VWS V14.01,2013-01-18 13:24:00,
2013-01-18 07:26:00,33.4,27.0,30.22,SE,137,7.0,11.0,77,0.00,,---,0.00,VWS V14.01,2013-01-18 13:26:00,
2013-01-18 07:30:00,33.1,26.7,30.22,SE,143,7.0,11.0,77,0.00,,---,0.00,VWS V14.01,2013-01-18 13:30:00,
2013-01-18 07:31:00,32.9,26.8,30.22,SE,146,7.0,11.0,78,0.00,,---,0.00,VWS V14.01,2013-01-18 13:31:00,
2013-01-18 07:32:00,32.9,26.8,30.22,SSE,153,5.0,11.0,78,0.00,,---,0.00,VWS V14.01,2013-01-18 13:32:00,
2013-01-18 07:35:00,32.8,26.7,30.22,SSE,148,6.0,11.0,78,0.00,,---,0.00,VWS V14.01,2013-01-18 13:35:00,
2013-01-18 07:36:00,32.8,26.7,30.22,SSE,148,6.0,11.0,78,0.00,,---,0.00,VWS V14.01,2013-01-18 13:36:00,
2013-01-18 07:37:00,32.8,26.7,30.22,SSE,148,6.0,11.0,78,0.00,,---,0.00,VWS V14.01,2013-01-18 13:37:00,
2013-01-18 07:40:00,32.8,26.7,30.22,SSE,161,6.0,11.0,78,0.00,,---,0.00,VWS V14.01,2013-01-18 13:40:00,
2013-01-18 07:41:00,32.8,26.7,30.22,SSE,159,7.0,11.0,78,0.00,,---,0.00,VWS V14.01,2013-01-18 13:41:00,
2013-01-18 07:42:00,32.8,26.7,30.22,SSE,160,4.0,11.0,78,0.00,,---,0.00,VWS V14.01,2013-01-18 13:42:00,
2013-01-18 07:45:00,32.8,26.7,30.22,SE,143,4.0,6.0,78,0.00,,---,0.00,VWS V14.01,2013-01-18 13:45:00,
2013-01-18 07:46:00,32.7,26.6,30.22,SE,132,4.0,9.0,78,0.00,,---,0.00,VWS V14.01,2013-01-18 13:46:00,
2013-01-18 07:47:00,32.7,26.6,30.22,SE,133,7.0,9.0,78,0.00,,---,0.00,VWS V14.01,2013-01-18 13:47:00,
2013-01-18 07:50:00,32.5,26.4,30.22,SE,141,5.0,9.0,78,0.00,,---,0.00,VWS V14.01,2013-01-18 13:50:00,
2013-01-18 07:52:00,32.5,26.7,30.22,SE,136,5.0,9.0,79,0.00,,---,0.00,VWS V14.01,2013-01-18 13:52:00,
2013-01-18 07:56:00,32.4,26.6,30.22,SE,142,5.0,9.0,79,0.00,,---,0.00,VWS V14.01,2013-01-18 13:56:00,
2013-01-18 07:57:00,32.4,26.9,30.22,SE,136,5.0,9.0,80,0.00,,---,0.00,VWS V14.01,2013-01-18 13:57:00,
2013-01-18 08:00:00,32.8,26.7,30.22,SSE,147,3.0,11.0,78,0.00,,---,0.00,VWS V14.01,2013-01-18 14:00:00,
2013-01-18 08:01:00,32.5,27.0,30.21,SE,143,6.0,9.0,80,0.00,,---,0.00,VWS V14.01,2013-01-18 14:01:00,
2013-01-18 08:02:00,32.5,27.0,30.21,SE,145,4.0,9.0,80,0.00,,---,0.00,VWS V14.01,2013-01-18 14:02:00,
2013-01-18 08:03:00,32.7,27.2,30.21,SE,132,5.0,9.0,80,0.00,,---,0.00,VWS V14.01,2013-01-18 14:03:00,
2013-01-18 08:06:00,32.8,27.0,30.21,SE,124,5.0,9.0,79,0.00,,---,0.00,VWS V14.01,2013-01-18 14:06:00,
2013-01-18 08:07:00,32.9,27.1,30.21,SE,127,4.0,9.0,79,0.00,,---,0.00,VWS V14.01,2013-01-18 14:07:00,
2013-01-18 08:08:00,32.9,27.1,30.21,SE,128,4.0,9.0,79,0.00,,---,0.00,VWS V14.01,2013-01-18 14:08:00,
2013-01-18 08:09:00,33.1,27.3,30.21,SSE,151,5.0,9.0,79,0.00,,---,0.00,VWS V14.01,2013-01-18 14:09:00,
2013-01-18 08:11:00,33.2,27.4,30.21,SE,144,4.0,9.0,79,0.00,,---,0.00,VWS V14.01,2013-01-18 14:11:00,
2013-01-18 08:12:00,33.4,27.6,30.21,SE,145,4.0,9.0,79,0.00,,---,0.00,VWS V14.01,2013-01-18 14:12:00,
2013-01-18 08:13:00,33.4,27.6,30.21,SSE,148,6.0,9.0,79,0.00,,---,0.00,VWS V14.01,2013-01-18 14:13:00,
2013-01-18 08:15:00,33.5,27.4,30.21,SE,141,4.0,6.0,78,0.00,,---,0.00,VWS V14.01,2013-01-18 14:15:00,
2013-01-18 08:17:00,33.8,27.7,30.21,SE,136,4.0,6.0,78,0.00,,---,0.00,VWS V14.01,2013-01-18 14:17:00,
2013-01-18 08:18:00,33.8,27.7,30.21,SE,136,5.0,6.0,78,0.00,,---,0.00,VWS V14.01,2013-01-18 14:18:00,
2013-01-18 08:20:00,34.1,28.0,30.21,SE,146,4.0,10.0,78,0.00,,---,0.00,VWS V14.01,2013-01-18 14:20:00,
2013-01-18 08:22:00,34.4,28.0,30.21,SE,143,3.0,10.0,77,0.00,,---,0.00,VWS V14.01,2013-01-18 14:22:00,
2013-01-18 08:23:00,34.4,28.0,30.21,SE,143,3.0,10.0,77,0.00,,---,0.00,VWS V14.01,2013-01-18 14:23:00,
2013-01-18 08:25:00,34.6,28.1,30.21,SE,129,4.0,10.0,77,0.00,,---,0.00,VWS V14.01,2013-01-18 14:25:00,
2013-01-18 08:27:00,34.7,28.2,30.21,SE,134,3.0,11.0,77,0.00,,---,0.00,VWS V14.01,2013-01-18 14:27:00,
2013-01-18 08:28:00,34.7,28.2,30.21,SE,134,4.0,11.0,77,0.00,,---,0.00,VWS V14.01,2013-01-18 14:28:00,
2013-01-18 08:30:00,34.9,28.1,30.20,SE,146,6.0,11.0,76,0.00,,---,0.00,VWS V14.01,2013-01-18 14:30:00,
2013-01-18 08:33:00,35.2,28.4,30.20,SSE,153,4.0,11.0,76,0.00,,---,0.00,VWS V14.01,2013-01-18 14:33:00,
2013-01-18 08:34:00,35.2,28.4,30.20,SSE,153,3.0,11.0,76,0.00,,---,0.00,VWS V14.01,2013-01-18 14:34:00,
2013-01-18 08:35:00,35.3,28.5,30.20,SSE,151,3.0,11.0,76,0.00,,---,0.00,VWS V14.01,2013-01-18 14:35:00,
2013-01-18 08:38:00,35.6,28.8,30.20,South,172,3.0,11.0,76,0.00,,---,0.00,VWS V14.01,2013-01-18 14:38:00,
2013-01-18 08:39:00,35.6,28.8,30.20,South,181,7.0,11.0,76,0.00,,---,0.00,VWS V14.01,2013-01-18 14:39:00,
2013-01-18 08:41:00,35.9,28.8,30.20,SSE,156,6.0,11.0,75,0.00,,---,0.00,VWS V14.01,2013-01-18 14:41:00,
2013-01-18 08:44:00,36.3,28.8,30.20,SE,145,10.0,11.0,74,0.00,,---,0.00,VWS V14.01,2013-01-18 14:44:00,
2013-01-18 08:46:00,36.6,28.8,30.20,SE,143,7.0,9.0,73,0.00,,---,0.00,VWS V14.01,2013-01-18 14:46:00,
2013-01-18 08:49:00,36.9,28.7,30.20,SSE,156,14.0,14.0,72,0.00,,---,0.00,VWS V14.01,2013-01-18 14:49:00,
2013-01-18 08:51:00,37.2,29.0,30.20,SE,131,12.0,14.0,72,0.00,,---,0.00,VWS V14.01,2013-01-18 14:51:00,
2013-01-18 08:54:00,37.6,29.1,30.20,SSE,162,6.0,14.0,71,0.00,,---,0.00,VWS V14.01,2013-01-18 14:54:00,
2013-01-18 08:55:00,37.6,29.1,30.20,SSE,163,9.0,14.0,71,0.00,,---,0.00,VWS V14.01,2013-01-18 14:55:00,
2013-01-18 08:57:00,37.9,29.4,30.20,SSW,205,12.0,14.0,71,0.00,,---,0.00,VWS V14.01,2013-01-18 14:57:00,
2013-01-18 08:59:00,38.2,29.3,30.19,South,172,11.0,14.0,70,0.00,,---,0.00,VWS V14.01,2013-01-18 14:59:00,
2013-01-18 09:00:00,38.3,29.4,30.19,South,170,7.0,8.0,70,0.00,,---,0.00,VWS V14.01,2013-01-18 15:00:00,
2013-01-18 09:01:00,38.3,29.4,30.19,South,170,7.0,8.0,70,0.00,,---,0.00,VWS V14.01,2013-01-18 15:01:00,
2013-01-18 09:02:00,38.5,29.6,30.19,SSE,148,9.0,9.0,70,0.00,,---,0.00,VWS V14.01,2013-01-18 15:02:00,
2013-01-18 09:05:00,38.9,29.2,30.19,SSE,167,11.0,16.0,68,0.00,,---,0.00,VWS V14.01,2013-01-18 15:05:00,
2013-01-18 09:06:00,38.9,29.2,30.19,SE,143,12.0,16.0,68,0.00,,---,0.00,VWS V14.01,2013-01-18 15:06:00,
2013-01-18 09:07:00,39.1,29.5,30.19,South,170,11.0,17.0,68,0.00,,---,0.00,VWS V14.01,2013-01-18 15:07:00,
2013-01-18 09:10:00,39.5,29.5,30.19,SE,143,17.0,20.0,67,0.00,,---,0.00,VWS V14.01,2013-01-18 15:10:00,
2013-01-18 09:11:00,39.5,29.5,30.19,South,177,13.0,20.0,67,0.00,,---,0.00,VWS V14.01,2013-01-18 15:11:00,
2013-01-18 09:12:00,39.5,29.5,30.19,South,169,10.0,20.0,67,0.00,,---,0.00,VWS V14.01,2013-01-18 15:12:00,
2013-01-18 09:15:00,39.9,29.5,30.18,SSE,159,10.0,17.0,66,0.00,,---,0.00,VWS V14.01,2013-01-18 15:15:00,
2013-01-18 09:17:00,39.9,29.5,30.18,South,176,13.0,17.0,66,0.00,,---,0.00,VWS V14.01,2013-01-18 15:17:00,
2013-01-18 09:20:00,40.2,29.8,30.18,SSW,202,14.0,18.0,66,0.00,,---,0.00,VWS V14.01,2013-01-18 15:20:00,
2013-01-18 09:22:00,40.3,29.5,30.18,South,178,14.0,18.0,65,0.00,,---,0.00,VWS V14.01,2013-01-18 15:22:00,
2013-01-18 09:26:00,40.6,29.8,30.18,SSE,149,5.0,18.0,65,0.00,,---,0.00,VWS V14.01,2013-01-18 15:26:00,
2013-01-18 09:27:00,40.8,30.0,30.18,South,186,10.0,18.0,65,0.00,,---,0.00,VWS V14.01,2013-01-18 15:27:00,
2013-01-18 09:28:00,40.8,30.0,30.18,SSW,199,14.0,22.0,65,0.00,,---,0.00,VWS V14.01,2013-01-18 15:28:00,
2013-01-18 09:30:00,39.8,29.4,30.18,SSE,153,4.0,20.0,66,0.00,,---,0.00,VWS V14.01,2013-01-18 15:30:00,
2013-01-18 09:31:00,41.1,29.9,30.18,South,169,13.0,22.0,64,0.00,,---,0.00,VWS V14.01,2013-01-18 15:31:00,
2013-01-18 09:32:00,41.2,30.0,30.18,South,174,12.0,22.0,64,0.00,,---,0.00,VWS V14.01,2013-01-18 15:32:00,
2013-01-18 09:33:00,41.2,30.0,30.18,South,186,11.0,22.0,64,0.00,,---,0.00,VWS V14.01,2013-01-18 15:33:00,
2013-01-18 09:34:00,41.2,30.0,30.18,SSE,162,12.0,22.0,64,0.00,,---,0.00,VWS V14.01,2013-01-18 15:34:00,
2013-01-18 09:36:00,41.5,30.2,30.18,South,185,11.0,22.0,64,0.00,,---,0.00,VWS V14.01,2013-01-18 15:36:00,
2013-01-18 09:38:00,41.6,30.0,30.18,South,175,4.0,22.0,63,0.00,,---,0.00,VWS V14.01,2013-01-18 15:38:00,
2013-01-18 09:39:00,41.9,30.2,30.18,SSE,165,10.0,22.0,63,0.00,,---,0.00,VWS V14.01,2013-01-18 15:39:00,
2013-01-18 09:41:00,42.2,30.1,30.18,South,169,8.0,22.0,62,0.00,,---,0.00,VWS V14.01,2013-01-18 15:41:00,
2013-01-18 09:43:00,42.5,30.4,30.18,SSE,165,10.0,22.0,62,0.00,,---,0.00,VWS V14.01,2013-01-18 15:43:00,
2013-01-18 09:44:00,42.6,30.5,30.17,SSE,166,12.0,22.0,62,0.00,,---,0.00,VWS V14.01,2013-01-18 15:44:00,
2013-01-18 09:46:00,42.9,30.4,30.17,SSW,195,14.0,23.0,61,0.00,,---,0.00,VWS V14.01,2013-01-18 15:46:00,
2013-01-18 09:48:00,42.9,30.4,30.17,South,182,9.0,23.0,61,0.00,,---,0.00,VWS V14.01,2013-01-18 15:48:00,
2013-01-18 09:50:00,43.1,30.6,30.17,SSW,200,20.0,23.0,61,0.00,,---,0.00,VWS V14.01,2013-01-18 15:50:00,
2013-01-18 09:51:00,43.3,30.8,30.17,South,176,12.0,23.0,61,0.00,,---,0.00,VWS V14.01,2013-01-18 15:51:00,
2013-01-18 09:53:00,43.5,30.5,30.17,South,184,16.0,23.0,60,0.00,,---,0.00,VWS V14.01,2013-01-18 15:53:00,
2013-01-18 09:55:00,43.6,30.6,30.17,SSE,156,13.0,23.0,60,0.00,,---,0.00,VWS V14.01,2013-01-18 15:55:00,
2013-01-18 09:57:00,43.9,30.5,30.17,SSE,162,16.0,27.0,59,0.00,,---,0.00,VWS V14.01,2013-01-18 15:57:00,
2013-01-18 09:58:00,44.1,30.7,30.17,South,176,11.0,27.0,59,0.00,,---,0.00,VWS V14.01,2013-01-18 15:58:00,
2013-01-18 10:00:00,44.2,30.8,30.17,SSE,147,18.0,27.0,59,0.00,,---,0.00,VWS V14.01,2013-01-18 16:00:00,
2013-01-18 10:03:00,44.3,30.9,30.17,South,186,10.0,27.0,59,0.00,,---,0.00,VWS V14.01,2013-01-18 16:03:00,
2013-01-18 10:04:00,44.5,30.7,30.17,SSE,160,18.0,27.0,58,0.00,,---,0.00,VWS V14.01,2013-01-18 16:04:00,
2013-01-18 10:05:00,44.6,30.8,30.17,SSE,155,16.0,27.0,58,0.00,,---,0.00,VWS V14.01,2013-01-18 16:05:00,
2013-01-18 10:08:00,44.8,30.9,30.17,South,180,12.0,27.0,58,0.00,,---,0.00,VWS V14.01,2013-01-18 16:08:00,
2013-01-18 10:09:00,44.9,31.0,30.17,South,174,15.0,27.0,58,0.00,,---,0.00,VWS V14.01,2013-01-18 16:09:00,
2013-01-18 10:10:00,45.1,31.2,30.17,South,170,7.0,27.0,58,0.00,,---,0.00,VWS V14.01,2013-01-18 16:10:00,
2013-01-18 10:13:00,45.4,31.1,30.17,South,180,14.0,27.0,57,0.00,,---,0.00,VWS V14.01,2013-01-18 16:13:00,
2013-01-18 10:14:00,45.5,31.2,30.16,South,176,14.0,27.0,57,0.00,,---,0.00,VWS V14.01,2013-01-18 16:14:00,
2013-01-18 10:16:00,45.8,31.0,30.16,SSE,156,12.0,21.0,56,0.00,,---,0.00,VWS V14.01,2013-01-18 16:16:00,
2013-01-18 10:18:00,46.1,31.3,30.16,South,177,21.0,27.0,56,0.00,,---,0.00,VWS V14.01,2013-01-18 16:18:00,
2013-01-18 10:19:00,46.2,31.4,30.16,SSW,195,21.0,27.0,56,0.00,,---,0.00,VWS V14.01,2013-01-18 16:19:00,
2013-01-18 10:20:00,46.2,31.4,30.16,SSE,167,10.0,27.0,56,0.00,,---,0.00,VWS V14.01,2013-01-18 16:20:00,
2013-01-18 10:22:00,46.5,31.2,30.16,South,191,13.0,27.0,55,0.00,,---,0.00,VWS V14.01,2013-01-18 16:22:00,
2013-01-18 10:23:00,46.8,31.0,30.16,SSW,205,21.0,27.0,54,0.00,,---,0.00,VWS V14.01,2013-01-18 16:23:00,
2013-01-18 10:24:00,46.8,31.0,30.16,SSW,205,21.0,27.0,54,0.00,,---,0.00,VWS V14.01,2013-01-18 16:24:00,
2013-01-18 10:25:00,47.3,31.5,30.16,South,184,15.0,27.0,54,0.00,,---,0.00,VWS V14.01,2013-01-18 16:25:00,
2013-01-18 10:27:00,47.4,31.1,30.16,SSW,192,14.0,27.0,53,0.00,,---,0.00,VWS V14.01,2013-01-18 16:27:00,
2013-01-18 10:29:00,47.6,31.3,30.15,South,172,10.0,27.0,53,0.00,,---,0.00,VWS V14.01,2013-01-18 16:29:00,
2013-01-18 10:30:00,47.7,31.4,30.15,South,182,15.0,27.0,53,0.00,,---,0.00,VWS V14.01,2013-01-18 16:30:00,
2013-01-18 10:32:00,48.0,31.2,30.15,SSE,151,14.0,27.0,52,0.00,,---,0.00,VWS V14.01,2013-01-18 16:32:00,
2013-01-18 10:34:00,48.5,31.2,30.15,South,184,16.0,27.0,51,0.00,,---,0.00,VWS V14.01,2013-01-18 16:34:00,
2013-01-18 10:35:00,48.5,31.2,30.15,SE,141,11.0,27.0,51,0.00,,---,0.00,VWS V14.01,2013-01-18 16:35:00,
2013-01-18 10:37:00,48.9,31.1,30.15,SSW,199,13.0,27.0,50,0.00,,---,0.00,VWS V14.01,2013-01-18 16:37:00,
2013-01-18 10:39:00,49.1,31.8,30.15,South,177,15.0,27.0,51,0.00,,---,0.00,VWS V14.01,2013-01-18 16:39:00,
2013-01-18 10:40:00,49.2,31.4,30.15,SSE,166,8.0,27.0,50,0.00,,---,0.00,VWS V14.01,2013-01-18 16:40:00,
2013-01-18 10:43:00,49.6,31.7,30.15,South,178,8.0,27.0,50,0.00,,---,0.00,VWS V14.01,2013-01-18 16:43:00,
2013-01-18 10:44:00,49.8,30.9,30.14,South,189,12.0,14.0,48,0.00,,---,0.00,VWS V14.01,2013-01-18 16:44:00,
2013-01-18 10:45:00,49.9,31.0,30.14,South,173,13.0,17.0,48,0.00,,---,0.00,VWS V14.01,2013-01-18 16:45:00,
2013-01-18 10:48:00,50.4,31.5,30.14,South,173,17.0,18.0,48,0.00,,---,0.00,VWS V14.01,2013-01-18 16:48:00,
2013-01-18 10:50:00,50.5,31.0,30.14,SW,221,9.0,23.0,47,0.00,,---,0.00,VWS V14.01,2013-01-18 16:50:00,
2013-01-18 10:51:00,50.7,31.2,30.14,South,179,20.0,23.0,47,0.00,,---,0.00,VWS V14.01,2013-01-18 16:51:00,
2013-01-18 10:53:00,50.8,31.3,30.14,SSW,203,18.0,23.0,47,0.00,,---,0.00,VWS V14.01,2013-01-18 16:53:00,
2013-01-18 10:55:00,51.3,31.2,30.14,South,174,19.0,23.0,46,0.00,,---,0.00,VWS V14.01,2013-01-18 16:55:00,
2013-01-18 10:56:00,51.3,30.7,30.14,SSW,195,14.0,23.0,45,0.00,,---,0.00,VWS V14.01,2013-01-18 16:56:00,
2013-01-18 10:58:00,51.6,30.4,30.14,SSW,210,23.0,29.0,44,0.00,,---,0.00,VWS V14.01,2013-01-18 16:58:00,
2013-01-18 11:00:00,51.6,30.4,30.12,SSW,213,21.0,29.0,44,0.00,,---,0.00,VWS V14.01,2013-01-18 17:00:00,
2013-01-18 11:01:00,51.6,30.4,30.12,South,187,7.0,29.0,44,0.00,,---,0.00,VWS V14.01,2013-01-18 17:01:00,
2013-01-18 11:04:00,52.2,31.0,30.12,South,187,12.0,29.0,44,0.00,,---,0.00,VWS V14.01,2013-01-18 17:04:00,
2013-01-18 11:06:00,52.3,31.0,30.12,South,188,21.0,29.0,44,0.00,,---,0.00,VWS V14.01,2013-01-18 17:06:00,
2013-01-18 11:10:00,52.9,30.5,30.12,SSW,210,13.0,29.0,42,0.00,,---,0.00,VWS V14.01,2013-01-18 17:10:00,
2013-01-18 11:11:00,53.1,30.0,30.12,SSW,198,23.0,29.0,41,0.00,,---,0.00,VWS V14.01,2013-01-18 17:11:00,
2013-01-18 11:12:00,53.1,30.0,30.12,SSW,196,21.0,29.0,41,0.00,,---,0.00,VWS V14.01,2013-01-18 17:12:00,
2013-01-18 11:16:00,53.2,29.5,30.12,SSW,196,20.0,29.0,40,0.00,,---,0.00,VWS V14.01,2013-01-18 17:16:00,
2013-01-18 11:17:00,53.3,30.2,30.12,SSW,204,31.0,31.0,41,0.00,,---,0.00,VWS V14.01,2013-01-18 17:17:00,
2013-01-18 11:21:00,53.3,29.6,30.12,South,186,28.0,32.0,40,0.00,,---,0.00,VWS V14.01,2013-01-18 17:21:00,
2013-01-18 11:22:00,53.3,29.6,30.12,SW,214,29.0,32.0,40,0.00,,---,0.00,VWS V14.01,2013-01-18 17:22:00,
2013-01-18 11:23:00,53.5,29.8,30.12,SW,232,24.0,32.0,40,0.00,,---,0.00,VWS V14.01,2013-01-18 17:23:00,
2013-01-18 11:26:00,53.9,30.1,30.12,South,183,11.0,32.0,40,0.00,,---,0.00,VWS V14.01,2013-01-18 17:26:00,
2013-01-18 11:27:00,54.1,30.3,30.12,SSW,209,13.0,32.0,40,0.00,,---,0.00,VWS V14.01,2013-01-18 17:27:00,
2013-01-18 11:28:00,54.1,30.3,30.12,SSW,193,14.0,32.0,40,0.00,,---,0.00,VWS V14.01,2013-01-18 17:28:00,
2013-01-18 11:30:00,53.2,30.1,30.12,SSW,203,14.0,29.0,41,0.00,,---,0.00,VWS V14.01,2013-01-18 17:30:00,
2013-01-18 11:31:00,54.4,30.0,30.10,South,188,19.0,32.0,39,0.00,,---,0.00,VWS V14.01,2013-01-18 17:31:00,
2013-01-18 11:32:00,54.4,30.0,30.10,SSW,193,15.0,32.0,39,0.00,,---,0.00,VWS V14.01,2013-01-18 17:32:00,
2013-01-18 11:33:00,54.4,30.0,30.10,SSW,193,11.0,32.0,39,0.00,,---,0.00,VWS V14.01,2013-01-18 17:33:00,
2013-01-18 11:36:00,54.7,29.6,30.10,SSW,201,17.0,32.0,38,0.00,,---,0.00,VWS V14.01,2013-01-18 17:36:00,
2013-01-18 11:37:00,54.7,30.2,30.10,SSW,207,24.0,32.0,39,0.00,,---,0.00,VWS V14.01,2013-01-18 17:37:00,
2013-01-18 11:38:00,54.7,30.2,30.10,South,185,13.0,32.0,39,0.00,,---,0.00,VWS V14.01,2013-01-18 17:38:00,
2013-01-18 11:41:00,54.8,30.3,30.10,South,178,19.0,32.0,39,0.00,,---,0.00,VWS V14.01,2013-01-18 17:41:00,
2013-01-18 11:42:00,54.8,29.7,30.10,South,185,13.0,32.0,38,0.00,,---,0.00,VWS V14.01,2013-01-18 17:42:00,
2013-01-18 11:43:00,54.8,29.7,30.10,SW,223,15.0,32.0,38,0.00,,---,0.00,VWS V14.01,2013-01-18 17:43:00,
2013-01-18 11:44:00,55.0,30.5,30.08,South,180,11.0,32.0,39,0.00,,---,0.00,VWS V14.01,2013-01-18 17:44:00,
2013-01-18 11:47:00,55.0,29.9,30.08,South,179,10.0,29.0,38,0.00,,---,0.00,VWS V14.01,2013-01-18 17:47:00,
2013-01-18 11:48:00,55.1,30.0,30.08,SSW,202,15.0,29.0,38,0.00,,---,0.00,VWS V14.01,2013-01-18 17:48:00,
2013-01-18 11:49:00,55.1,30.0,30.08,South,183,19.0,29.0,38,0.00,,---,0.00,VWS V14.01,2013-01-18 17:49:00,
2013-01-18 11:52:00,55.0,29.9,30.08,SSW,194,28.0,33.0,38,0.00,,---,0.00,VWS V14.01,2013-01-18 17:52:00,
2013-01-18 11:53:00,54.8,29.7,30.08,SSW,206,14.0,33.0,38,0.00,,---,0.00,VWS V14.01,2013-01-18 17:53:00,
2013-01-18 11:54:00,54.8,28.4,30.08,SSW,212,23.0,33.0,36,0.00,,---,0.00,VWS V14.01,2013-01-18 17:54:00,
2013-01-18 11:57:00,55.0,29.9,30.08,SSE,162,10.0,33.0,38,0.00,,---,0.00,VWS V14.01,2013-01-18 17:57:00,
2013-01-18 11:58:00,55.3,30.1,30.07,SSW,202,15.0,33.0,38,0.00,,---,0.00,VWS V14.01,2013-01-18 17:58:00,
2013-01-18 11:59:00,55.3,30.1,30.07,SW,221,12.0,33.0,38,0.00,,---,0.00,VWS V14.01,2013-01-18 17:59:00,
2013-01-18 12:00:00,55.1,30.6,30.08,South,179,17.0,32.0,39,0.00,,---,0.00,VWS V14.01,2013-01-18 18:00:00,
2013-01-18 12:03:00,55.7,29.9,30.07,SSW,205,19.0,20.0,37,0.00,,---,0.00,VWS V14.01,2013-01-18 18:03:00,
2013-01-18 12:04:00,55.6,29.8,30.07,SSW,210,16.0,22.0,37,0.00,,---,0.00,VWS V14.01,2013-01-18 18:04:00,
2013-01-18 12:08:00,55.6,29.8,30.07,South,187,21.0,33.0,37,0.00,,---,0.00,VWS V14.01,2013-01-18 18:08:00,
2013-01-18 12:09:00,55.6,29.8,30.07,South,187,19.0,33.0,37,0.00,,---,0.00,VWS V14.01,2013-01-18 18:09:00,
2013-01-18 12:13:00,55.9,30.7,30.07,SSW,205,17.0,33.0,38,0.00,,---,0.00,VWS V14.01,2013-01-18 18:13:00,
2013-01-18 12:14:00,55.9,30.0,30.06,SSW,211,20.0,33.0,37,0.00,,---,0.00,VWS V14.01,2013-01-18 18:14:00,
2013-01-18 12:18:00,56.2,30.3,30.06,South,187,17.0,26.0,37,0.00,,---,0.00,VWS V14.01,2013-01-18 18:18:00,
2013-01-18 12:19:00,56.2,29.6,30.06,SSW,208,12.0,26.0,36,0.00,,---,0.00,VWS V14.01,2013-01-18 18:19:00,
2013-01-18 12:20:00,56.2,29.6,30.06,SSW,195,17.0,26.0,36,0.00,,---,0.00,VWS V14.01,2013-01-18 18:20:00,
2013-01-18 12:23:00,56.0,29.4,30.06,SW,218,21.0,28.0,36,0.00,,---,0.00,VWS V14.01,2013-01-18 18:23:00,
2013-01-18 12:24:00,56.0,30.1,30.06,SSW,205,11.0,28.0,37,0.00,,---,0.00,VWS V14.01,2013-01-18 18:24:00,
2013-01-18 12:25:00,56.2,30.3,30.06,SSW,206,15.0,28.0,37,0.00,,---,0.00,VWS V14.01,2013-01-18 18:25:00,
2013-01-18 12:28:00,56.2,29.6,30.04,SSW,209,18.0,33.0,36,0.00,,---,0.00,VWS V14.01,2013-01-18 18:28:00,
2013-01-18 12:29:00,56.2,30.3,30.04,South,190,13.0,33.0,37,0.00,,---,0.00,VWS V14.01,2013-01-18 18:29:00,
2013-01-18 12:30:00,56.2,30.3,30.04,SSW,198,15.0,33.0,37,0.00,,---,0.00,VWS V14.01,2013-01-18 18:30:00,
2013-01-18 12:33:00,56.3,29.7,30.04,SSW,206,20.0,33.0,36,0.00,,---,0.00,VWS V14.01,2013-01-18 18:33:00,
2013-01-18 12:34:00,56.5,29.9,30.04,SSW,202,13.0,33.0,36,0.00,,---,0.00,VWS V14.01,2013-01-18 18:34:00,
2013-01-18 12:35:00,56.6,30.6,30.04,SSW,204,14.0,33.0,37,0.00,,---,0.00,VWS V14.01,2013-01-18 18:35:00,
2013-01-18 12:39:00,56.9,30.2,30.04,South,184,16.0,33.0,36,0.00,,---,0.00,VWS V14.01,2013-01-18 18:39:00,
2013-01-18 12:40:00,56.9,30.2,30.04,South,186,13.0,33.0,36,0.00,,---,0.00,VWS V14.01,2013-01-18 18:40:00,
2013-01-18 12:44:00,56.9,29.5,30.03,SSW,195,16.0,33.0,35,0.00,,---,0.00,VWS V14.01,2013-01-18 18:44:00,
2013-01-18 12:45:00,56.9,29.5,30.03,SSW,206,16.0,30.0,35,0.00,,---,0.00,VWS V14.01,2013-01-18 18:45:00,
2013-01-18 12:46:00,57.0,30.3,30.03,South,179,16.0,30.0,36,0.00,,---,0.00,VWS V14.01,2013-01-18 18:46:00,
2013-01-18 12:49:00,57.3,29.9,30.03,South,176,21.0,30.0,35,0.00,,---,0.00,VWS V14.01,2013-01-18 18:49:00,
2013-01-18 12:50:00,57.3,29.9,30.03,South,176,13.0,30.0,35,0.00,,---,0.00,VWS V14.01,2013-01-18 18:50:00,
2013-01-18 12:51:00,57.3,29.9,30.03,SSW,199,21.0,30.0,35,0.00,,---,0.00,VWS V14.01,2013-01-18 18:51:00,
2013-01-18 12:55:00,57.5,30.1,30.03,SSE,164,15.0,30.0,35,0.00,,---,0.00,VWS V14.01,2013-01-18 18:55:00,
2013-01-18 12:56:00,57.6,30.2,30.03,South,177,17.0,30.0,35,0.00,,---,0.00,VWS V14.01,2013-01-18 18:56:00,
2013-01-18 12:57:00,57.6,30.2,30.03,SSE,152,17.0,30.0,35,0.00,,---,0.00,VWS V14.01,2013-01-18 18:57:00,
2013-01-18 13:00:00,57.5,29.4,30.02,SW,219,12.0,32.0,34,0.00,,---,0.00,VWS V14.01,2013-01-18 19:00:00,
2013-01-18 13:01:00,57.5,30.1,30.02,South,181,21.0,32.0,35,0.00,,---,0.00,VWS V14.01,2013-01-18 19:01:00,
2013-01-18 13:03:00,57.2,29.8,30.02,SSW,205,14.0,32.0,35,0.00,,---,0.00,VWS V14.01,2013-01-18 19:03:00,
2013-01-18 13:05:00,57.3,29.9,30.02,SW,219,16.0,32.0,35,0.00,,---,0.00,VWS V14.01,2013-01-18 19:05:00,
2013-01-18 13:07:00,57.5,30.1,30.02,South,188,24.0,32.0,35,0.00,,---,0.00,VWS V14.01,2013-01-18 19:07:00,
2013-01-18 13:08:00,57.5,29.4,30.02,South,172,16.0,32.0,34,0.00,,---,0.00,VWS V14.01,2013-01-18 19:08:00,
2013-01-18 13:10:00,57.6,29.5,30.02,South,179,14.0,32.0,34,0.00,,---,0.00,VWS V14.01,2013-01-18 19:10:00,
2013-01-18 13:12:00,57.8,29.6,30.02,SSW,202,21.0,32.0,34,0.00,,---,0.00,VWS V14.01,2013-01-18 19:12:00,
2013-01-18 13:14:00,57.6,29.5,30.01,SSW,210,28.0,32.0,34,0.00,,---,0.00,VWS V14.01,2013-01-18 19:14:00,
2013-01-18 13:15:00,57.6,29.5,30.01,SSW,207,19.0,25.0,34,0.00,,---,0.00,VWS V14.01,2013-01-18 19:15:00,
2013-01-18 13:17:00,58.0,29.8,30.01,SSW,203,15.0,25.0,34,0.00,,---,0.00,VWS V14.01,2013-01-18 19:17:00,
2013-01-18 13:19:00,58.1,30.6,30.01,South,184,11.0,31.0,35,0.00,,---,0.00,VWS V14.01,2013-01-18 19:19:00,
2013-01-18 13:20:00,58.3,30.1,30.01,SSW,200,13.0,31.0,34,0.00,,---,0.00,VWS V14.01,2013-01-18 19:20:00,
2013-01-18 13:22:00,58.6,30.3,30.01,South,191,19.0,31.0,34,0.00,,---,0.00,VWS V14.01,2013-01-18 19:22:00,
2013-01-18 13:24:00,58.6,29.6,30.01,South,182,14.0,31.0,33,0.00,,---,0.00,VWS V14.01,2013-01-18 19:24:00,
2013-01-18 13:25:00,58.7,29.7,30.01,SSW,201,16.0,31.0,33,0.00,,---,0.00,VWS V14.01,2013-01-18 19:25:00,
2013-01-18 13:27:00,58.9,29.9,30.01,SSW,204,19.0,31.0,33,0.00,,---,0.00,VWS V14.01,2013-01-18 19:27:00,
2013-01-18 13:29:00,58.7,29.7,30.00,South,181,20.0,31.0,33,0.00,,---,0.00,VWS V14.01,2013-01-18 19:29:00,
2013-01-18 13:30:00,57.6,29.5,30.01,SSW,203,20.0,32.0,34,0.00,,---,0.00,VWS V14.01,2013-01-18 19:30:00,
2013-01-18 13:31:00,58.7,28.9,30.00,SSW,201,22.0,31.0,32,0.00,,---,0.00,VWS V14.01,2013-01-18 19:31:00,
2013-01-18 13:32:00,58.6,29.6,30.00,SSW,207,26.0,31.0,33,0.00,,---,0.00,VWS V14.01,2013-01-18 19:32:00,
2013-01-18 13:33:00,58.6,28.9,30.00,SSW,207,20.0,31.0,32,0.00,,---,0.00,VWS V14.01,2013-01-18 19:33:00,
2013-01-18 13:35:00,58.7,29.7,30.00,South,177,18.0,31.0,33,0.00,,---,0.00,VWS V14.01,2013-01-18 19:35:00,
2013-01-18 13:37:00,58.7,28.9,30.00,SSW,200,17.0,31.0,32,0.00,,---,0.00,VWS V14.01,2013-01-18 19:37:00,
2013-01-18 13:38:00,58.7,28.9,30.00,SSW,207,13.0,31.0,32,0.00,,---,0.00,VWS V14.01,2013-01-18 19:38:00,
2013-01-18 13:40:00,58.9,29.1,30.00,SSW,206,15.0,31.0,32,0.00,,---,0.00,VWS V14.01,2013-01-18 19:40:00,
2013-01-18 13:43:00,58.9,29.1,30.00,South,175,14.0,31.0,32,0.00,,---,0.00,VWS V14.01,2013-01-18 19:43:00,
2013-01-18 13:45:00,58.9,29.1,29.99,SW,218,18.0,27.0,32,0.00,,---,0.00,VWS V14.01,2013-01-18 19:45:00,
2013-01-18 13:48:00,58.9,29.1,29.99,South,180,20.0,28.0,32,0.00,,---,0.00,VWS V14.01,2013-01-18 19:48:00,
2013-01-18 13:50:00,58.9,29.1,29.99,SSW,206,20.0,33.0,32,0.00,,---,0.00,VWS V14.01,2013-01-18 19:50:00,
2013-01-18 13:53:00,59.0,29.2,29.99,SSW,201,22.0,33.0,32,0.00,,---,0.00,VWS V14.01,2013-01-18 19:53:00,
2013-01-18 13:55:00,59.0,29.2,29.99,SSW,211,25.0,33.0,32,0.00,,---,0.00,VWS V14.01,2013-01-18 19:55:00,
2013-01-18 13:58:00,59.2,29.4,29.98,South,181,15.0,33.0,32,0.00,,---,0.00,VWS V14.01,2013-01-18 19:58:00,
2013-01-18 14:00:00,58.9,29.1,29.99,SW,215,24.0,31.0,32,0.00,,---,0.00,VWS V14.01,2013-01-18 20:00:00,
2013-01-18 14:01:00,59.3,29.5,29.98,South,191,19.0,33.0,32,0.00,,---,0.00,VWS V14.01,2013-01-18 20:01:00,
2013-01-18 14:03:00,59.6,29.7,29.98,SSW,203,21.0,33.0,32,0.00,,---,0.00,VWS V14.01,2013-01-18 20:03:00,
2013-01-18 14:04:00,59.6,29.7,29.98,SSW,199,26.0,33.0,32,0.00,,---,0.00,VWS V14.01,2013-01-18 20:04:00,
2013-01-18 14:06:00,59.9,29.2,29.98,SSW,193,21.0,33.0,31,0.00,,---,0.00,VWS V14.01,2013-01-18 20:06:00,
2013-01-18 14:09:00,59.9,29.2,29.98,South,171,16.0,33.0,31,0.00,,---,0.00,VWS V14.01,2013-01-18 20:09:00,
2013-01-18 14:11:00,59.9,29.2,29.98,SSW,198,23.0,33.0,31,0.00,,---,0.00,VWS V14.01,2013-01-18 20:11:00,
2013-01-18 14:14:00,59.6,29.0,29.98,SSW,202,21.0,34.0,31,0.00,,---,0.00,VWS V14.01,2013-01-18 20:14:00,
2013-01-18 14:16:00,59.6,29.0,29.98,SSW,200,25.0,30.0,31,0.00,,---,0.00,VWS V14.01,2013-01-18 20:16:00,
2013-01-18 14:19:00,59.9,30.0,29.98,SSW,200,22.0,30.0,32,0.00,,---,0.00,VWS V14.01,2013-01-18 20:19:00,
2013-01-18 14:22:00,59.9,29.2,29.98,SSW,195,26.0,33.0,31,0.00,,---,0.00,VWS V14.01,2013-01-18 20:22:00,
2013-01-18 14:24:00,59.9,26.7,29.98,SSW,210,23.0,33.0,28,0.00,,---,0.00,VWS V14.01,2013-01-18 20:24:00,
2013-01-18 14:25:00,59.8,29.1,29.98,SW,218,23.0,33.0,31,0.00,,---,0.00,VWS V14.01,2013-01-18 20:25:00,
2013-01-18 14:27:00,59.8,29.1,29.98,SSW,212,12.0,33.0,31,0.00,,---,0.00,VWS V14.01,2013-01-18 20:27:00,
2013-01-18 14:29:00,60.1,29.4,29.98,SSW,205,16.0,33.0,31,0.00,,---,0.00,VWS V14.01,2013-01-18 20:29:00,
2013-01-18 14:30:00,60.1,29.4,29.98,SSW,208,15.0,33.0,31,0.00,,---,0.00,VWS V14.01,2013-01-18 20:30:00,
2013-01-18 14:32:00,60.1,28.6,29.98,SSW,209,20.0,33.0,30,0.00,,---,0.00,VWS V14.01,2013-01-18 20:32:00,
2013-01-18 14:34:00,60.1,29.4,29.98,South,174,13.0,33.0,31,0.00,,---,0.00,VWS V14.01,2013-01-18 20:34:00,
2013-01-18 14:35:00,60.2,29.5,29.98,SW,214,17.0,33.0,31,0.00,,---,0.00,VWS V14.01,2013-01-18 20:35:00,
2013-01-18 14:36:00,60.2,29.5,29.98,SSW,212,17.0,33.0,31,0.00,,---,0.00,VWS V14.01,2013-01-18 20:36:00,
2013-01-18 14:38:00,60.1,29.4,29.98,SSW,211,17.0,33.0,31,0.00,,---,0.00,VWS V14.01,2013-01-18 20:38:00,
2013-01-18 14:40:00,59.9,29.2,29.98,SSW,201,22.0,33.0,31,0.00,,---,0.00,VWS V14.01,2013-01-18 20:40:00,
2013-01-18 14:41:00,59.8,29.1,29.98,SSW,211,21.0,33.0,31,0.00,,---,0.00,VWS V14.01,2013-01-18 20:41:00,
2013-01-18 14:43:00,59.8,29.1,29.98,SW,214,22.0,33.0,31,0.00,,---,0.00,VWS V14.01,2013-01-18 20:43:00,
2013-01-18 14:45:00,59.8,29.1,29.97,SSW,196,11.0,19.0,31,0.00,,---,0.00,VWS V14.01,2013-01-18 20:45:00,
2013-01-18 14:46:00,59.8,29.1,29.97,South,172,15.0,21.0,31,0.00,,---,0.00,VWS V14.01,2013-01-18 20:46:00,
2013-01-18 14:48:00,59.9,30.0,29.97,SSW,205,12.0,23.0,32,0.00,,---,0.00,VWS V14.01,2013-01-18 20:48:00,
2013-01-18 14:50:00,59.9,29.2,29.97,South,174,17.0,23.0,31,0.00,,---,0.00,VWS V14.01,2013-01-18 20:50:00,
2013-01-18 14:51:00,59.8,29.1,29.97,South,190,20.0,28.0,31,0.00,,---,0.00,VWS V14.01,2013-01-18 20:51:00,
2013-01-18 14:53:00,59.6,29.7,29.97,South,188,18.0,29.0,32,0.00,,---,0.00,VWS V14.01,2013-01-18 20:53:00,
2013-01-18 14:55:00,59.5,29.6,29.97,SSW,210,25.0,32.0,32,0.00,,---,0.00,VWS V14.01,2013-01-18 20:55:00,
2013-01-18 14:57:00,59.5,29.6,29.97,South,182,21.0,32.0,32,0.00,,---,0.00,VWS V14.01,2013-01-18 20:57:00,
2013-01-18 14:58:00,59.5,29.6,29.97,South,181,18.0,32.0,32,0.00,,---,0.00,VWS V14.01,2013-01-18 20:58:00,
2013-01-18 15:00:00,59.2,29.4,29.97,South,188,25.0,29.0,32,0.00,,---,0.00,VWS V14.01,2013-01-18 21:00:00,
2013-01-18 15:02:00,59.2,29.4,29.97,South,187,16.0,29.0,32,0.00,,---,0.00,VWS V14.01,2013-01-18 21:02:00,
2013-01-18 15:03:00,59.2,30.1,29.97,South,190,24.0,29.0,33,0.00,,---,0.00,VWS V14.01,2013-01-18 21:03:00,
2013-01-18 15:06:00,59.3,29.5,29.97,SSW,200,21.0,29.0,32,0.00,,---,0.00,VWS V14.01,2013-01-18 21:06:00,
2013-01-18 15:07:00,59.3,29.5,29.97,SW,232,17.0,33.0,32,0.00,,---,0.00,VWS V14.01,2013-01-18 21:07:00,
2013-01-18 15:08:00,59.3,29.5,29.97,SSW,206,20.0,33.0,32,0.00,,---,0.00,VWS V14.01,2013-01-18 21:08:00,
2013-01-18 15:11:00,59.3,29.5,29.97,SSW,202,19.0,33.0,32,0.00,,---,0.00,VWS V14.01,2013-01-18 21:11:00,
2013-01-18 15:12:00,59.3,30.2,29.97,SSW,196,20.0,33.0,33,0.00,,---,0.00,VWS V14.01,2013-01-18 21:12:00,
2013-01-18 15:13:00,59.3,29.5,29.97,South,189,29.0,33.0,32,0.00,,---,0.00,VWS V14.01,2013-01-18 21:13:00,
2013-01-18 15:14:00,59.3,29.5,29.97,South,187,19.0,33.0,32,0.00,,---,0.00,VWS V14.01,2013-01-18 21:14:00,
2013-01-18 15:17:00,59.2,29.4,29.97,SW,214,21.0,26.0,32,0.00,,---,0.00,VWS V14.01,2013-01-18 21:17:00,
2013-01-18 15:18:00,59.2,29.4,29.97,SSW,212,27.0,32.0,32,0.00,,---,0.00,VWS V14.01,2013-01-18 21:18:00,
2013-01-18 15:19:00,59.2,30.1,29.97,SSW,209,16.0,32.0,33,0.00,,---,0.00,VWS V14.01,2013-01-18 21:19:00,
2013-01-18 15:22:00,59.0,30.0,29.97,SSW,212,17.0,32.0,33,0.00,,---,0.00,VWS V14.01,2013-01-18 21:22:00,
2013-01-18 15:23:00,59.0,30.0,29.97,SW,226,13.0,32.0,33,0.00,,---,0.00,VWS V14.01,2013-01-18 21:23:00,
2013-01-18 15:24:00,59.2,30.1,29.97,SSW,212,17.0,32.0,33,0.00,,---,0.00,VWS V14.01,2013-01-18 21:24:00,
2013-01-18 15:27:00,59.2,30.1,29.97,SSW,195,16.0,32.0,33,0.00,,---,0.00,VWS V14.01,2013-01-18 21:27:00,
2013-01-18 15:28:00,59.2,30.1,29.97,SSW,212,25.0,32.0,33,0.00,,---,0.00,VWS V14.01,2013-01-18 21:28:00,
2013-01-18 15:29:00,59.2,30.1,29.97,SW,216,27.0,32.0,33,0.00,,---,0.00,VWS V14.01,2013-01-18 21:29:00,
2013-01-18 15:30:00,59.2,29.4,29.97,South,183,18.0,33.0,32,0.00,,---,0.00,VWS V14.01,2013-01-18 21:30:00,
2013-01-18 15:32:00,58.9,29.9,29.97,SSW,203,25.0,33.0,33,0.00,,---,0.00,VWS V14.01,2013-01-18 21:32:00,
2013-01-18 15:33:00,58.9,29.9,29.97,SSW,193,26.0,33.0,33,0.00,,---,0.00,VWS V14.01,2013-01-18 21:33:00,
2013-01-18 15:34:00,58.9,29.9,29.97,SW,217,21.0,33.0,33,0.00,,---,0.00,VWS V14.01,2013-01-18 21:34:00,
2013-01-18 15:37:00,58.9,29.9,29.97,SSW,208,20.0,33.0,33,0.00,,---,0.00,VWS V14.01,2013-01-18 21:37:00,
2013-01-18 15:38:00,58.7,29.7,29.97,SSW,194,20.0,33.0,33,0.00,,---,0.00,VWS V14.01,2013-01-18 21:38:00,
2013-01-18 15:39:00,58.7,29.7,29.97,SSW,209,33.0,33.0,33,0.00,,---,0.00,VWS V14.01,2013-01-18 21:39:00,
2013-01-18 15:43:00,58.7,30.4,29.97,SW,225,15.0,40.0,34,0.00,,---,0.00,VWS V14.01,2013-01-18 21:43:00,
2013-01-18 15:44:00,58.7,29.7,29.96,SSW,203,16.0,40.0,33,0.00,,---,0.00,VWS V14.01,2013-01-18 21:44:00,
2013-01-18 15:45:00,58.7,30.4,29.96,SW,219,13.0,16.0,34,0.00,,---,0.00,VWS V14.01,2013-01-18 21:45:00,
2013-01-18 15:48:00,58.7,30.4,29.96,SSW,203,15.0,25.0,34,0.00,,---,0.00,VWS V14.01,2013-01-18 21:48:00,
2013-01-18 15:49:00,58.9,30.6,29.96,SSW,208,16.0,25.0,34,0.00,,---,0.00,VWS V14.01,2013-01-18 21:49:00,
2013-01-18 15:50:00,58.9,30.6,29.96,SSW,195,11.0,25.0,34,0.00,,---,0.00,VWS V14.01,2013-01-18 21:50:00,
2013-01-18 15:53:00,58.9,30.6,29.96,WSW,241,17.0,25.0,34,0.00,,---,0.00,VWS V14.01,2013-01-18 21:53:00,
2013-01-18 15:54:00,58.9,30.6,29.96,SW,219,27.0,32.0,34,0.00,,---,0.00,VWS V14.01,2013-01-18 21:54:00,
2013-01-18 15:55:00,58.7,30.4,29.96,SSW,213,18.0,32.0,34,0.00,,---,0.00,VWS V14.01,2013-01-18 21:55:00,
2013-01-18 15:58:00,58.7,29.7,29.96,SSW,204,20.0,32.0,33,0.00,,---,0.00,VWS V14.01,2013-01-18 21:58:00,
2013-01-18 15:59:00,58.6,30.3,29.96,SSW,200,17.0,32.0,34,0.00,,---,0.00,VWS V14.01,2013-01-18 21:59:00,
2013-01-18 16:00:00,58.6,30.3,29.96,SSW,200,17.0,32.0,34,0.00,,---,0.00,VWS V14.01,2013-01-18 22:00:00,
2013-01-18 16:01:00,58.6,29.6,29.96,SW,214,23.0,33.0,33,0.00,,---,0.00,VWS V14.01,2013-01-18 22:01:00,
2013-01-18 16:03:00,58.4,30.2,29.96,SW,216,21.0,33.0,34,0.00,,---,0.00,VWS V14.01,2013-01-18 22:03:00,
2013-01-18 16:05:00,58.4,30.2,29.96,SSW,210,14.0,33.0,34,0.00,,---,0.00,VWS V14.01,2013-01-18 22:05:00,
2013-01-18 16:06:00,58.4,30.2,29.96,SSW,192,21.0,33.0,34,0.00,,---,0.00,VWS V14.01,2013-01-18 22:06:00,
2013-01-18 16:08:00,58.3,30.8,29.96,SSW,207,15.0,33.0,35,0.00,,---,0.00,VWS V14.01,2013-01-18 22:08:00,
2013-01-18 16:10:00,58.3,30.8,29.96,SSW,207,18.0,33.0,35,0.00,,---,0.00,VWS V14.01,2013-01-18 22:10:00,
2013-01-18 16:11:00,58.3,30.8,29.96,SSW,199,11.0,33.0,35,0.00,,---,0.00,VWS V14.01,2013-01-18 22:11:00,
2013-01-18 16:13:00,58.3,30.8,29.96,SW,214,18.0,33.0,35,0.00,,---,0.00,VWS V14.01,2013-01-18 22:13:00,
2013-01-18 16:15:00,58.1,30.6,29.96,South,177,12.0,21.0,35,0.00,,---,0.00,VWS V14.01,2013-01-18 22:15:00,
2013-01-18 16:16:00,58.1,30.6,29.96,SW,230,10.0,21.0,35,0.00,,---,0.00,VWS V14.01,2013-01-18 22:16:00,
2013-01-18 16:17:00,58.1,30.6,29.96,SSW,196,27.0,27.0,35,0.00,,---,0.00,VWS V14.01,2013-01-18 22:17:00,
2013-01-18 16:18:00,58.0,30.5,29.96,SW,214,21.0,27.0,35,0.00,,---,0.00,VWS V14.01,2013-01-18 22:18:00,
2013-01-18 16:21:00,58.0,30.5,29.96,SSW,208,24.0,29.0,35,0.00,,---,0.00,VWS V14.01,2013-01-18 22:21:00,
2013-01-18 16:23:00,58.0,30.5,29.96,South,178,14.0,29.0,35,0.00,,---,0.00,VWS V14.01,2013-01-18 22:23:00,
2013-01-18 16:24:00,57.8,30.4,29.96,SW,218,21.0,29.0,35,0.00,,---,0.00,VWS V14.01,2013-01-18 22:24:00,
2013-01-18 16:26:00,57.8,31.0,29.96,South,190,17.0,29.0,36,0.00,,---,0.00,VWS V14.01,2013-01-18 22:26:00,
2013-01-18 16:28:00,57.6,30.9,29.96,South,180,13.0,29.0,36,0.00,,---,0.00,VWS V14.01,2013-01-18 22:28:00,
2013-01-18 16:30:00,57.5,30.8,29.97,SSW,206,12.0,29.0,36,0.00,,---,0.00,VWS V14.01,2013-01-18 22:30:00,
2013-01-18 16:31:00,57.5,30.8,29.97,SSW,207,14.0,29.0,36,0.00,,---,0.00,VWS V14.01,2013-01-18 22:31:00,
2013-01-18 16:32:00,57.5,30.8,29.97,SSW,209,16.0,29.0,36,0.00,,---,0.00,VWS V14.01,2013-01-18 22:32:00,
2013-01-18 16:33:00,57.3,30.6,29.97,South,176,19.0,29.0,36,0.00,,---,0.00,VWS V14.01,2013-01-18 22:33:00,
2013-01-18 16:35:00,57.3,30.6,29.97,South,188,18.0,29.0,36,0.00,,---,0.00,VWS V14.01,2013-01-18 22:35:00,
2013-01-18 16:37:00,57.3,30.6,29.97,SSW,207,19.0,29.0,36,0.00,,---,0.00,VWS V14.01,2013-01-18 22:37:00,
2013-01-18 16:39:00,57.2,31.2,29.97,SSW,201,21.0,29.0,37,0.00,,---,0.00,VWS V14.01,2013-01-18 22:39:00,
2013-01-18 16:40:00,57.2,30.5,29.97,SSW,210,18.0,29.0,36,0.00,,---,0.00,VWS V14.01,2013-01-18 22:40:00,
2013-01-18 16:42:00,57.2,30.5,29.97,SSW,206,23.0,29.0,36,0.00,,---,0.00,VWS V14.01,2013-01-18 22:42:00,
2013-01-18 16:44:00,57.2,30.5,29.97,SW,223,19.0,29.0,36,0.00,,---,0.00,VWS V14.01,2013-01-18 22:44:00,
2013-01-18 16:45:00,57.0,31.0,29.97,SW,234,14.0,24.0,37,0.00,,---,0.00,VWS V14.01,2013-01-18 22:45:00,
2013-01-18 16:47:00,56.9,30.9,29.97,SSW,213,9.0,24.0,37,0.00,,---,0.00,VWS V14.01,2013-01-18 22:47:00,
2013-01-18 16:49:00,56.9,30.9,29.97,South,174,10.0,24.0,37,0.00,,---,0.00,VWS V14.01,2013-01-18 22:49:00,
2013-01-18 16:50:00,56.9,30.9,29.97,SSW,205,12.0,24.0,37,0.00,,---,0.00,VWS V14.01,2013-01-18 22:50:00,
2013-01-18 16:52:00,56.7,30.7,29.97,SSW,203,20.0,27.0,37,0.00,,---,0.00,VWS V14.01,2013-01-18 22:52:00,
2013-01-18 16:54:00,56.6,30.6,29.97,SSE,167,9.0,27.0,37,0.00,,---,0.00,VWS V14.01,2013-01-18 22:54:00,
2013-01-18 16:55:00,56.6,30.6,29.97,SSW,205,14.0,27.0,37,0.00,,---,0.00,VWS V14.01,2013-01-18 22:55:00,
2013-01-18 16:57:00,56.5,30.6,29.97,SSE,163,13.0,27.0,37,0.00,,---,0.00,VWS V14.01,2013-01-18 22:57:00,
2013-01-18 16:58:00,56.5,30.6,29.97,SSW,205,20.0,27.0,37,0.00,,---,0.00,VWS V14.01,2013-01-18 22:58:00,
2013-01-18 16:59:00,56.5,30.6,29.97,SSW,196,18.0,27.0,37,0.00,,---,0.00,VWS V14.01,2013-01-18 22:59:00,
2013-01-18 17:00:00,56.5,31.2,29.97,South,189,15.0,27.0,38,0.00,,---,0.00,VWS V14.01,2013-01-18 23:00:00,
2013-01-18 17:02:00,56.3,31.0,29.97,SSW,192,12.0,27.0,38,0.00,,---,0.00,VWS V14.01,2013-01-18 23:02:00,
2013-01-18 17:03:00,56.3,31.0,29.97,South,176,10.0,27.0,38,0.00,,---,0.00,VWS V14.01,2013-01-18 23:03:00,
2013-01-18 17:04:00,56.2,31.0,29.97,SSW,199,11.0,27.0,38,0.00,,---,0.00,VWS V14.01,2013-01-18 23:04:00,
2013-01-18 17:05:00,56.2,31.0,29.97,South,169,10.0,27.0,38,0.00,,---,0.00,VWS V14.01,2013-01-18 23:05:00,
2013-01-18 17:07:00,56.0,30.8,29.97,South,180,9.0,27.0,38,0.00,,---,0.00,VWS V14.01,2013-01-18 23:07:00,
2013-01-18 17:08:00,55.9,30.7,29.97,South,188,10.0,27.0,38,0.00,,---,0.00,VWS V14.01,2013-01-18 23:08:00,
2013-01-18 17:09:00,55.9,30.7,29.97,SSE,155,12.0,27.0,38,0.00,,---,0.00,VWS V14.01,2013-01-18 23:09:00,
2013-01-18 17:10:00,55.9,30.7,29.97,South,174,10.0,27.0,38,0.00,,---,0.00,VWS V14.01,2013-01-18 23:10:00,
2013-01-18 17:13:00,55.7,30.5,29.97,South,176,14.0,27.0,38,0.00,,---,0.00,VWS V14.01,2013-01-18 23:13:00,
2013-01-18 17:15:00,55.7,30.5,29.97,South,171,15.0,17.0,38,0.00,,---,0.00,VWS V14.01,2013-01-18 23:15:00,
2013-01-18 17:19:00,55.6,31.1,29.97,South,175,14.0,22.0,39,0.00,,---,0.00,VWS V14.01,2013-01-18 23:19:00,
2013-01-18 17:20:00,55.4,30.9,29.97,South,172,9.0,22.0,39,0.00,,---,0.00,VWS V14.01,2013-01-18 23:20:00,
2013-01-18 17:21:00,55.4,30.9,29.97,SSW,203,11.0,22.0,39,0.00,,---,0.00,VWS V14.01,2013-01-18 23:21:00,
2013-01-18 17:24:00,55.0,30.5,29.97,South,177,6.0,22.0,39,0.00,,---,0.00,VWS V14.01,2013-01-18 23:24:00,
2013-01-18 17:25:00,55.0,31.1,29.97,South,186,14.0,22.0,40,0.00,,---,0.00,VWS V14.01,2013-01-18 23:25:00,
2013-01-18 17:26:00,54.8,31.0,29.97,SSW,201,13.0,22.0,40,0.00,,---,0.00,VWS V14.01,2013-01-18 23:26:00,
2013-01-18 17:29:00,54.7,30.9,29.98,SSE,159,9.0,22.0,40,0.00,,---,0.00,VWS V14.01,2013-01-18 23:29:00,
2013-01-18 17:30:00,54.5,30.7,29.98,SSE,164,5.0,22.0,40,0.00,,---,0.00,VWS V14.01,2013-01-18 23:30:00,
2013-01-18 17:31:00,54.4,30.6,29.98,South,179,8.0,22.0,40,0.00,,---,0.00,VWS V14.01,2013-01-18 23:31:00,
2013-01-18 17:34:00,54.4,30.6,29.98,SSE,155,7.0,22.0,40,0.00,,---,0.00,VWS V14.01,2013-01-18 23:34:00,
2013-01-18 17:35:00,54.4,30.6,29.98,SSE,147,16.0,22.0,40,0.00,,---,0.00,VWS V14.01,2013-01-18 23:35:00,
2013-01-18 17:36:00,54.2,31.0,29.98,South,188,15.0,22.0,41,0.00,,---,0.00,VWS V14.01,2013-01-18 23:36:00,
2013-01-18 17:37:00,54.2,30.4,29.98,SSE,167,13.0,22.0,40,0.00,,---,0.00,VWS V14.01,2013-01-18 23:37:00,
2013-01-18 17:39:00,54.2,30.4,29.98,SSE,164,6.0,22.0,40,0.00,,---,0.00,VWS V14.01,2013-01-18 23:39:00,
2013-01-18 17:40:00,54.1,30.9,29.98,SE,144,12.0,22.0,41,0.00,,---,0.00,VWS V14.01,2013-01-18 23:40:00,
2013-01-18 17:41:00,54.1,30.9,29.98,SSW,200,13.0,22.0,41,0.00,,---,0.00,VWS V14.01,2013-01-18 23:41:00,
2013-01-18 17:42:00,54.1,30.9,29.98,SSE,168,5.0,22.0,41,0.00,,---,0.00,VWS V14.01,2013-01-18 23:42:00,
2013-01-18 17:45:00,53.9,30.8,29.97,South,189,14.0,14.0,41,0.00,,---,0.00,VWS V14.01,2013-01-18 23:45:00,
2013-01-18 17:46:00,53.8,30.7,29.97,SSE,167,12.0,15.0,41,0.00,,---,0.00,VWS V14.01,2013-01-18 23:46:00,
2013-01-18 17:47:00,53.8,30.7,29.97,SSE,157,13.0,15.0,41,0.00,,---,0.00,VWS V14.01,2013-01-18 23:47:00,
2013-01-18 17:50:00,53.6,31.1,29.97,SSE,148,8.0,15.0,42,0.00,,---,0.00,VWS V14.01,2013-01-18 23:50:00,
2013-01-18 17:51:00,53.3,30.8,29.97,SSE,159,6.0,15.0,42,0.00,,---,0.00,VWS V14.01,2013-01-18 23:51:00,
2013-01-18 17:52:00,53.2,30.7,29.97,SSE,148,7.0,15.0,42,0.00,,---,0.00,VWS V14.01,2013-01-18 23:52:00,
2013-01-18 17:55:00,52.9,31.0,29.97,SSE,163,4.0,15.0,43,0.00,,---,0.00,VWS V14.01,2013-01-18 23:55:00,
2013-01-18 17:56:00,52.8,30.9,29.97,SSE,155,7.0,15.0,43,0.00,,---,0.00,VWS V14.01,2013-01-18 23:56:00,
2013-01-18 17:57:00,52.6,31.3,29.97,SSE,160,10.0,15.0,44,0.00,,---,0.00,VWS V14.01,2013-01-18 23:57:00,
2013-01-18 17:58:00,52.5,31.2,29.98,South,179,8.0,15.0,44,0.00,,---,0.00,VWS V14.01,2013-01-18 23:58:00,
2013-01-18 18:00:00,53.9,30.8,29.97,SE,141,9.0,22.0,41,0.00,,---,0.00,VWS V14.01,2013-01-19 00:00:00,
2013-01-18 18:01:00,52.5,31.2,29.98,SSW,205,13.0,16.0,44,0.00,,---,0.00,VWS V14.01,2013-01-19 00:01:00,
2013-01-18 18:02:00,52.5,31.2,29.98,South,177,12.0,16.0,44,0.00,,---,0.00,VWS V14.01,2013-01-19 00:02:00,
2013-01-18 18:03:00,52.5,31.2,29.98,South,170,8.0,16.0,44,0.00,,---,0.00,VWS V14.01,2013-01-19 00:03:00,
2013-01-18 18:06:00,52.5,31.2,29.98,SSE,160,11.0,16.0,44,0.00,,---,0.00,VWS V14.01,2013-01-19 00:06:00,
2013-01-18 18:07:00,52.5,31.2,29.98,South,181,12.0,16.0,44,0.00,,---,0.00,VWS V14.01,2013-01-19 00:07:00,
2013-01-18 18:08:00,52.5,31.2,29.98,SSE,167,12.0,18.0,44,0.00,,---,0.00,VWS V14.01,2013-01-19 00:08:00,
2013-01-18 18:12:00,52.3,31.0,29.98,SSE,156,11.0,18.0,44,0.00,,---,0.00,VWS V14.01,2013-01-19 00:12:00,
2013-01-18 18:13:00,52.2,31.5,29.98,SE,135,9.0,18.0,45,0.00,,---,0.00,VWS V14.01,2013-01-19 00:13:00,
2013-01-18 18:14:00,52.0,31.3,29.97,South,177,6.0,9.0,45,0.00,,---,0.00,VWS V14.01,2013-01-19 00:14:00,
2013-01-18 18:17:00,51.9,31.2,29.97,South,191,12.0,13.0,45,0.00,,---,0.00,VWS V14.01,2013-01-19 00:17:00,
2013-01-18 18:18:00,51.9,31.2,29.97,SSE,161,9.0,13.0,45,0.00,,---,0.00,VWS V14.01,2013-01-19 00:18:00,
2013-01-18 18:19:00,51.7,31.1,29.97,South,180,12.0,14.0,45,0.00,,---,0.00,VWS V14.01,2013-01-19 00:19:00,
2013-01-18 18:22:00,51.7,31.6,29.97,SSE,162,9.0,15.0,46,0.00,,---,0.00,VWS V14.01,2013-01-19 00:22:00,
2013-01-18 18:23:00,51.7,31.1,29.97,SSE,167,12.0,15.0,45,0.00,,---,0.00,VWS V14.01,2013-01-19 00:23:00,
2013-01-18 18:25:00,51.7,31.1,29.97,South,186,11.0,15.0,45,0.00,,---,0.00,VWS V14.01,2013-01-19 00:25:00,
2013-01-18 18:27:00,51.6,31.0,29.97,SSE,165,11.0,18.0,45,0.00,,---,0.00,VWS V14.01,2013-01-19 00:27:00,
2013-01-18 18:28:00,51.6,31.5,29.97,SSE,156,10.0,18.0,46,0.00,,---,0.00,VWS V14.01,2013-01-19 00:28:00,
2013-01-18 18:30:00,51.6,31.0,29.98,South,172,9.0,18.0,45,0.00,,---,0.00,VWS V14.01,2013-01-19 00:30:00,
2013-01-18 18:32:00,51.6,31.5,29.98,SSW,200,12.0,19.0,46,0.00,,---,0.00,VWS V14.01,2013-01-19 00:32:00,
2013-01-18 18:33:00,51.6,31.5,29.98,SSE,148,15.0,19.0,46,0.00,,---,0.00,VWS V14.01,2013-01-19 00:33:00,
2013-01-18 18:35:00,51.4,31.3,29.98,South,178,11.0,19.0,46,0.00,,---,0.00,VWS V14.01,2013-01-19 00:35:00,
2013-01-18 18:37:00,51.3,31.2,29.98,SSE,160,9.0,19.0,46,0.00,,---,0.00,VWS V14.01,2013-01-19 00:37:00,
2013-01-18 18:38:00,51.3,31.2,29.98,SSE,165,12.0,19.0,46,0.00,,---,0.00,VWS V14.01,2013-01-19 00:38:00,
2013-01-18 18:40:00,51.1,31.1,29.98,SSE,168,6.0,19.0,46,0.00,,---,0.00,VWS V14.01,2013-01-19 00:40:00,
2013-01-18 18:42:00,51.1,31.1,29.98,South,190,11.0,19.0,46,0.00,,---,0.00,VWS V14.01,2013-01-19 00:42:00,
2013-01-18 18:43:00,51.1,31.1,29.98,SSE,166,15.0,19.0,46,0.00,,---,0.00,VWS V14.01,2013-01-19 00:43:00,
2013-01-18 18:45:00,51.1,31.1,29.98,South,170,5.0,11.0,46,0.00,,---,0.00,VWS V14.01,2013-01-19 00:45:00,
2013-01-18 18:48:00,51.0,31.0,29.98,SSE,168,10.0,15.0,46,0.00,,---,0.00,VWS V14.01,2013-01-19 00:48:00,
2013-01-18 18:50:00,51.0,31.0,29.98,SSE,168,10.0,16.0,46,0.00,,---,0.00,VWS V14.01,2013-01-19 00:50:00,
2013-01-18 18:53:00,50.8,31.3,29.98,South,181,7.0,16.0,47,0.00,,---,0.00,VWS V14.01,2013-01-19 00:53:00,
2013-01-18 18:54:00,50.8,31.3,29.98,South,183,5.0,16.0,47,0.00,,---,0.00,VWS V14.01,2013-01-19 00:54:00,
2013-01-18 18:57:00,50.7,31.2,29.98,South,170,7.0,16.0,47,0.00,,---,0.00,VWS V14.01,2013-01-19 00:57:00,
2013-01-18 18:59:00,50.5,31.0,29.98,South,175,6.0,16.0,47,0.00,,---,0.00,VWS V14.01,2013-01-19 00:59:00,
2013-01-18 19:00:00,51.1,31.1,29.98,South,187,11.0,19.0,46,0.00,,---,0.00,VWS V14.01,2013-01-19 01:00:00,
2013-01-18 19:02:00,50.4,31.0,29.98,South,184,5.0,16.0,47,0.00,,---,0.00,VWS V14.01,2013-01-19 01:02:00,
2013-01-18 19:04:00,50.4,31.0,29.98,South,171,13.0,16.0,47,0.00,,---,0.00,VWS V14.01,2013-01-19 01:04:00,
2013-01-18 19:36:00,48.9,31.1,29.99,South,174,5.0,16.0,50,0.00,,---,0.00,VWS V14.01,2013-01-19 01:36:00,
2013-01-18 19:37:00,48.9,31.1,29.99,South,176,7.0,16.0,50,0.00,,---,0.00,VWS V14.01,2013-01-19 01:37:00,
2013-01-18 19:41:00,48.9,31.1,29.99,South,178,7.0,16.0,50,0.00,,---,0.00,VWS V14.01,2013-01-19 01:41:00,
2013-01-18 19:42:00,48.9,31.1,29.99,SSE,163,3.0,16.0,50,0.00,,---,0.00,VWS V14.01,2013-01-19 01:42:00,
2013-01-18 19:46:00,48.6,30.8,29.99,SSE,162,4.0,7.0,50,0.00,,---,0.00,VWS V14.01,2013-01-19 01:46:00,
2013-01-18 19:47:00,48.6,30.8,29.99,SSE,163,6.0,7.0,50,0.00,,---,0.00,VWS V14.01,2013-01-19 01:47:00,
2013-01-18 19:48:00,48.6,30.8,29.99,South,174,4.0,11.0,50,0.00,,---,0.00,VWS V14.01,2013-01-19 01:48:00,
2013-01-18 19:51:00,48.6,30.8,29.99,SSE,162,10.0,13.0,50,0.00,,---,0.00,VWS V14.01,2013-01-19 01:51:00,
2013-01-18 19:52:00,48.6,30.8,29.99,South,174,3.0,13.0,50,0.00,,---,0.00,VWS V14.01,2013-01-19 01:52:00,
2013-01-18 19:53:00,48.6,30.8,29.99,South,174,7.0,13.0,50,0.00,,---,0.00,VWS V14.01,2013-01-19 01:53:00,
2013-01-18 19:56:00,48.5,30.7,29.99,South,175,8.0,13.0,50,0.00,,---,0.00,VWS V14.01,2013-01-19 01:56:00,
2013-01-18 19:58:00,48.5,30.7,29.99,South,187,4.0,13.0,50,0.00,,---,0.00,VWS V14.01,2013-01-19 01:58:00,
2013-01-18 20:00:00,48.8,31.0,29.99,South,174,3.0,16.0,50,0.00,,---,0.00,VWS V14.01,2013-01-19 02:00:00,
2013-01-18 20:02:00,48.5,30.7,29.99,South,175,7.0,13.0,50,0.00,,---,0.00,VWS V14.01,2013-01-19 02:02:00,
2013-01-18 20:03:00,48.5,30.7,29.99,SSE,167,9.0,13.0,50,0.00,,---,0.00,VWS V14.01,2013-01-19 02:03:00,
2013-01-18 20:04:00,48.5,31.2,29.99,SSE,164,4.0,13.0,51,0.00,,---,0.00,VWS V14.01,2013-01-19 02:04:00,
2013-01-18 20:07:00,48.2,30.9,29.99,South,175,3.0,13.0,51,0.00,,---,0.00,VWS V14.01,2013-01-19 02:07:00,
2013-01-18 20:08:00,48.2,30.9,29.99,South,174,3.0,13.0,51,0.00,,---,0.00,VWS V14.01,2013-01-19 02:08:00,
2013-01-18 20:09:00,48.2,30.9,29.99,South,172,5.0,13.0,51,0.00,,---,0.00,VWS V14.01,2013-01-19 02:09:00,
2013-01-18 20:12:00,48.0,30.8,29.99,South,171,4.0,13.0,51,0.00,,---,0.00,VWS V14.01,2013-01-19 02:12:00,
2013-01-18 20:13:00,48.0,30.8,29.99,South,169,3.0,13.0,51,0.00,,---,0.00,VWS V14.01,2013-01-19 02:13:00,
2013-01-18 20:14:00,47.9,30.7,29.99,South,172,4.0,13.0,51,0.00,,---,0.00,VWS V14.01,2013-01-19 02:14:00,
2013-01-18 20:17:00,47.9,30.7,29.99,South,171,4.0,12.0,51,0.00,,---,0.00,VWS V14.01,2013-01-19 02:17:00,
2013-01-18 20:19:00,47.9,30.7,29.99,South,169,11.0,12.0,51,0.00,,---,0.00,VWS V14.01,2013-01-19 02:19:00,
2013-01-18 20:22:00,48.0,30.8,29.99,South,178,7.0,14.0,51,0.00,,---,0.00,VWS V14.01,2013-01-19 02:22:00,
2013-01-18 20:24:00,47.9,30.7,29.99,South,172,5.0,14.0,51,0.00,,---,0.00,VWS V14.01,2013-01-19 02:24:00,
2013-01-18 20:28:00,47.9,31.1,29.99,South,181,9.0,14.0,52,0.00,,---,0.00,VWS V14.01,2013-01-19 02:28:00,
2013-01-18 20:29:00,47.9,31.1,29.98,South,187,7.0,14.0,52,0.00,,---,0.00,VWS V14.01,2013-01-19 02:29:00,
2013-01-18 20:30:00,47.9,30.7,29.99,South,171,5.0,13.0,51,0.00,,---,0.00,VWS V14.01,2013-01-19 02:30:00,
2013-01-18 20:31:00,47.9,31.1,29.98,South,176,10.0,14.0,52,0.00,,---,0.00,VWS V14.01,2013-01-19 02:31:00,
2013-01-18 20:33:00,47.9,31.1,29.98,South,172,10.0,15.0,52,0.00,,---,0.00,VWS V14.01,2013-01-19 02:33:00,
2013-01-18 20:34:00,47.9,31.1,29.98,South,180,10.0,15.0,52,0.00,,---,0.00,VWS V14.01,2013-01-19 02:34:00,
2013-01-18 20:35:00,47.9,31.1,29.98,SSE,167,9.0,15.0,52,0.00,,---,0.00,VWS V14.01,2013-01-19 02:35:00,
2013-01-18 20:37:00,47.7,31.0,29.98,SSW,198,16.0,16.0,52,0.00,,---,0.00,VWS V14.01,2013-01-19 02:37:00,
2013-01-18 20:38:00,47.9,31.1,29.98,SSE,164,6.0,16.0,52,0.00,,---,0.00,VWS V14.01,2013-01-19 02:38:00,
2013-01-18 20:40:00,47.9,31.1,29.98,South,171,11.0,16.0,52,0.00,,---,0.00,VWS V14.01,2013-01-19 02:40:00,
2013-01-18 20:42:00,47.9,31.1,29.98,South,186,18.0,18.0,52,0.00,,---,0.00,VWS V14.01,2013-01-19 02:42:00,
2013-01-18 20:43:00,47.7,31.0,29.98,South,189,11.0,18.0,52,0.00,,---,0.00,VWS V14.01,2013-01-19 02:43:00,
2013-01-18 20:45:00,47.7,31.0,29.98,South,177,7.0,12.0,52,0.00,,---,0.00,VWS V14.01,2013-01-19 02:45:00,
2013-01-18 20:47:00,47.6,30.9,29.98,SSE,162,10.0,12.0,52,0.00,,---,0.00,VWS V14.01,2013-01-19 02:47:00,
2013-01-18 20:48:00,47.6,30.9,29.98,South,184,9.0,14.0,52,0.00,,---,0.00,VWS V14.01,2013-01-19 02:48:00,
2013-01-18 20:50:00,47.6,30.9,29.98,SSE,155,9.0,14.0,52,0.00,,---,0.00,VWS V14.01,2013-01-19 02:50:00,
2013-01-18 20:52:00,47.6,30.9,29.98,South,170,13.0,15.0,52,0.00,,---,0.00,VWS V14.01,2013-01-19 02:52:00,
2013-01-18 20:53:00,47.7,31.0,29.98,South,175,10.0,16.0,52,0.00,,---,0.00,VWS V14.01,2013-01-19 02:53:00,
2013-01-18 20:55:00,47.6,30.9,29.98,South,175,12.0,16.0,52,0.00,,---,0.00,VWS V14.01,2013-01-19 02:55:00,
2013-01-18 20:57:00,47.6,30.9,29.98,SSE,157,12.0,17.0,52,0.00,,---,0.00,VWS V14.01,2013-01-19 02:57:00,
2013-01-18 20:58:00,47.6,30.9,29.98,South,183,11.0,17.0,52,0.00,,---,0.00,VWS V14.01,2013-01-19 02:58:00,
2013-01-18 21:00:00,47.6,31.3,29.96,South,176,9.0,11.0,53,0.00,,---,0.00,VWS V14.01,2013-01-19 03:00:00,
2013-01-18 21:01:00,47.4,31.1,29.96,SSE,165,5.0,14.0,53,0.00,,---,0.00,VWS V14.01,2013-01-19 03:01:00,
2013-01-18 21:02:00,47.4,31.1,29.96,SSE,151,12.0,14.0,53,0.00,,---,0.00,VWS V14.01,2013-01-19 03:02:00,
2013-01-18 21:03:00,47.4,31.1,29.96,SSE,160,9.0,14.0,53,0.00,,---,0.00,VWS V14.01,2013-01-19 03:03:00,
2013-01-18 21:06:00,47.3,31.0,29.96,SSE,165,11.0,17.0,53,0.00,,---,0.00,VWS V14.01,2013-01-19 03:06:00,
2013-01-18 21:08:00,47.1,30.9,29.96,SSE,166,11.0,17.0,53,0.00,,---,0.00,VWS V14.01,2013-01-19 03:08:00,
2013-01-18 21:11:00,47.3,31.0,29.96,SSE,166,9.0,20.0,53,0.00,,---,0.00,VWS V14.01,2013-01-19 03:11:00,
2013-01-18 21:12:00,47.3,31.0,29.96,South,171,10.0,20.0,53,0.00,,---,0.00,VWS V14.01,2013-01-19 03:12:00,
2013-01-18 21:13:00,47.1,30.9,29.96,SSE,167,12.0,20.0,53,0.00,,---,0.00,VWS V14.01,2013-01-19 03:13:00,
2013-01-18 21:14:00,47.1,30.9,29.96,South,188,13.0,20.0,53,0.00,,---,0.00,VWS V14.01,2013-01-19 03:14:00,
2013-01-18 21:16:00,47.1,30.9,29.96,South,181,7.0,12.0,53,0.00,,---,0.00,VWS V14.01,2013-01-19 03:16:00,
2013-01-18 21:17:00,47.1,30.9,29.96,South,180,11.0,13.0,53,0.00,,---,0.00,VWS V14.01,2013-01-19 03:17:00,
2013-01-18 21:18:00,47.1,30.9,29.96,South,170,15.0,15.0,53,0.00,,---,0.00,VWS V14.01,2013-01-19 03:18:00,
2013-01-18 21:19:00,47.1,30.9,29.96,SSE,155,11.0,15.0,53,0.00,,---,0.00,VWS V14.01,2013-01-19 03:19:00,
2013-01-18 21:21:00,47.1,30.9,29.96,South,176,10.0,17.0,53,0.00,,---,0.00,VWS V14.01,2013-01-19 03:21:00,
2013-01-18 21:22:00,47.1,30.9,29.96,South,175,9.0,20.0,53,0.00,,---,0.00,VWS V14.01,2013-01-19 03:22:00,
2013-01-18 21:24:00,47.1,30.9,29.96,SE,143,7.0,20.0,53,0.00,,---,0.00,VWS V14.01,2013-01-19 03:24:00,
2013-01-18 21:25:00,47.1,30.9,29.96,South,179,9.0,20.0,53,0.00,,---,0.00,VWS V14.01,2013-01-19 03:25:00,
2013-01-18 21:26:00,47.1,30.9,29.96,SSE,162,12.0,20.0,53,0.00,,---,0.00,VWS V14.01,2013-01-19 03:26:00,
2013-01-18 21:27:00,47.1,30.9,29.96,South,183,9.0,20.0,53,0.00,,---,0.00,VWS V14.01,2013-01-19 03:27:00,
2013-01-18 21:30:00,47.1,30.9,29.96,SSE,155,11.0,20.0,53,0.00,,---,0.00,VWS V14.01,2013-01-19 03:30:00,
2013-01-18 21:32:00,47.1,30.9,29.96,SSW,204,11.0,20.0,53,0.00,,---,0.00,VWS V14.01,2013-01-19 03:32:00,
2013-01-18 21:35:00,47.1,30.9,29.96,South,180,16.0,20.0,53,0.00,,---,0.00,VWS V14.01,2013-01-19 03:35:00,
2013-01-18 21:37:00,47.1,30.9,29.96,South,176,6.0,20.0,53,0.00,,---,0.00,VWS V14.01,2013-01-19 03:37:00,
2013-01-18 21:38:00,47.1,30.9,29.96,South,169,9.0,20.0,53,0.00,,---,0.00,VWS V14.01,2013-01-19 03:38:00,
2013-01-18 21:40:00,47.1,30.9,29.96,SSW,203,8.0,20.0,53,0.00,,---,0.00,VWS V14.01,2013-01-19 03:40:00,
2013-01-18 21:42:00,47.1,30.9,29.96,South,173,6.0,20.0,53,0.00,,---,0.00,VWS V14.01,2013-01-19 03:42:00,
2013-01-18 21:43:00,47.1,30.9,29.96,SSE,148,13.0,20.0,53,0.00,,---,0.00,VWS V14.01,2013-01-19 03:43:00,
2013-01-18 21:45:00,47.1,31.3,29.95,SSE,157,12.0,12.0,54,0.00,,---,0.00,VWS V14.01,2013-01-19 03:45:00,
2013-01-18 21:46:00,47.1,31.3,29.95,South,186,10.0,15.0,54,0.00,,---,0.00,VWS V14.01,2013-01-19 03:46:00,
2013-01-18 21:47:00,47.0,31.2,29.95,South,171,7.0,15.0,54,0.00,,---,0.00,VWS V14.01,2013-01-19 03:47:00,
2013-01-18 21:48:00,47.0,31.2,29.95,South,189,10.0,15.0,54,0.00,,---,0.00,VWS V14.01,2013-01-19 03:48:00,
2013-01-18 21:50:00,47.0,31.2,29.95,South,173,13.0,15.0,54,0.00,,---,0.00,VWS V14.01,2013-01-19 03:50:00,
2013-01-18 21:51:00,47.0,31.2,29.95,South,176,12.0,17.0,54,0.00,,---,0.00,VWS V14.01,2013-01-19 03:51:00,
2013-01-18 21:53:00,47.0,31.2,29.95,South,184,12.0,17.0,54,0.00,,---,0.00,VWS V14.01,2013-01-19 03:53:00,
2013-01-18 21:54:00,47.0,31.2,29.95,South,191,13.0,17.0,54,0.00,,---,0.00,VWS V14.01,2013-01-19 03:54:00,
2013-01-18 21:55:00,47.1,30.9,29.95,South,182,14.0,18.0,53,0.00,,---,0.00,VWS V14.01,2013-01-19 03:55:00,
2013-01-18 21:56:00,47.1,30.9,29.95,SSW,203,11.0,18.0,53,0.00,,---,0.00,VWS V14.01,2013-01-19 03:56:00,
2013-01-18 21:58:00,47.3,31.0,29.95,SSE,161,13.0,18.0,53,0.00,,---,0.00,VWS V14.01,2013-01-19 03:58:00,
2013-01-18 21:59:00,47.4,31.1,29.94,South,175,11.0,18.0,53,0.00,,---,0.00,VWS V14.01,2013-01-19 03:59:00,
2013-01-18 22:00:00,47.1,30.9,29.95,South,181,9.0,20.0,53,0.00,,---,0.00,VWS V14.01,2013-01-19 04:00:00,
2013-01-18 22:01:00,47.4,31.1,29.94,SSW,198,15.0,18.0,53,0.00,,---,0.00,VWS V14.01,2013-01-19 04:01:00,
2013-01-18 22:03:00,47.4,31.1,29.94,SSW,196,17.0,19.0,53,0.00,,---,0.00,VWS V14.01,2013-01-19 04:03:00,
2013-01-18 22:04:00,47.4,31.1,29.94,SSW,207,11.0,19.0,53,0.00,,---,0.00,VWS V14.01,2013-01-19 04:04:00,
2013-01-18 22:06:00,47.4,31.1,29.94,SSE,158,13.0,19.0,53,0.00,,---,0.00,VWS V14.01,2013-01-19 04:06:00,
2013-01-18 22:07:00,47.4,31.1,29.94,SSE,166,7.0,19.0,53,0.00,,---,0.00,VWS V14.01,2013-01-19 04:07:00,
2013-01-18 22:08:00,47.3,31.0,29.94,South,181,15.0,19.0,53,0.00,,---,0.00,VWS V14.01,2013-01-19 04:08:00,
2013-01-18 22:10:00,47.4,31.1,29.94,South,181,11.0,23.0,53,0.00,,---,0.00,VWS V14.01,2013-01-19 04:10:00,
2013-01-18 22:11:00,47.4,31.1,29.94,SSE,163,8.0,23.0,53,0.00,,---,0.00,VWS V14.01,2013-01-19 04:11:00,
2013-01-18 22:12:00,47.4,31.1,29.94,South,169,11.0,23.0,53,0.00,,---,0.00,VWS V14.01,2013-01-19 04:12:00,
2013-01-18 22:14:00,47.4,32.1,29.94,SSW,207,16.0,23.0,55,0.00,,---,0.00,VWS V14.01,2013-01-19 04:14:00,
2013-01-18 22:15:00,47.4,31.1,29.94,South,174,12.0,13.0,53,0.00,,---,0.00,VWS V14.01,2013-01-19 04:15:00,
2013-01-18 22:16:00,47.4,31.1,29.94,South,176,14.0,16.0,53,0.00,,---,0.00,VWS V14.01,2013-01-19 04:16:00,
2013-01-18 22:17:00,47.4,31.1,29.94,South,185,10.0,16.0,53,0.00,,---,0.00,VWS V14.01,2013-01-19 04:17:00,
2013-01-18 22:19:00,47.4,31.1,29.94,South,174,14.0,16.0,53,0.00,,---,0.00,VWS V14.01,2013-01-19 04:19:00,
2013-01-18 22:20:00,47.6,31.3,29.94,SSE,156,16.0,19.0,53,0.00,,---,0.00,VWS V14.01,2013-01-19 04:20:00,
2013-01-18 22:21:00,47.6,31.3,29.94,South,171,7.0,19.0,53,0.00,,---,0.00,VWS V14.01,2013-01-19 04:21:00,
2013-01-18 22:22:00,47.6,31.3,29.94,South,170,12.0,19.0,53,0.00,,---,0.00,VWS V14.01,2013-01-19 04:22:00,
2013-01-18 22:24:00,47.4,31.1,29.94,South,179,12.0,19.0,53,0.00,,---,0.00,VWS V14.01,2013-01-19 04:24:00,
2013-01-18 22:26:00,47.4,31.1,29.94,South,174,15.0,19.0,53,0.00,,---,0.00,VWS V14.01,2013-01-19 04:26:00,
2013-01-18 22:27:00,47.4,31.1,29.94,SSE,157,12.0,19.0,53,0.00,,---,0.00,VWS V14.01,2013-01-19 04:27:00,
2013-01-18 22:28:00,47.4,31.1,29.94,South,188,9.0,19.0,53,0.00,,---,0.00,VWS V14.01,2013-01-19 04:28:00,
2013-01-18 22:29:00,47.4,31.1,29.94,South,173,10.0,19.0,53,0.00,,---,0.00,VWS V14.01,2013-01-19 04:29:00,
2013-01-18 22:30:00,47.4,31.1,29.94,SSW,194,13.0,23.0,53,0.00,,---,0.00,VWS V14.01,2013-01-19 04:30:00,
2013-01-18 22:31:00,47.4,31.1,29.94,SSE,150,13.0,19.0,53,0.00,,---,0.00,VWS V14.01,2013-01-19 04:31:00,
2013-01-18 22:32:00,47.4,31.1,29.94,South,182,10.0,19.0,53,0.00,,---,0.00,VWS V14.01,2013-01-19 04:32:00,
2013-01-18 22:34:00,47.4,31.1,29.94,South,174,13.0,19.0,53,0.00,,---,0.00,VWS V14.01,2013-01-19 04:34:00,
2013-01-18 22:35:00,47.4,31.1,29.94,South,188,10.0,19.0,53,0.00,,---,0.00,VWS V14.01,2013-01-19 04:35:00,
2013-01-18 22:36:00,47.4,31.1,29.94,SSW,193,10.0,19.0,53,0.00,,---,0.00,VWS V14.01,2013-01-19 04:36:00,
2013-01-18 22:38:00,47.4,31.1,29.94,South,181,11.0,19.0,53,0.00,,---,0.00,VWS V14.01,2013-01-19 04:38:00,
2013-01-18 22:39:00,47.4,31.1,29.94,South,188,12.0,19.0,53,0.00,,---,0.00,VWS V14.01,2013-01-19 04:39:00,
2013-01-18 22:40:00,47.4,31.1,29.94,SSW,192,12.0,19.0,53,0.00,,---,0.00,VWS V14.01,2013-01-19 04:40:00,
2013-01-18 22:41:00,47.6,31.3,29.94,South,183,14.0,19.0,53,0.00,,---,0.00,VWS V14.01,2013-01-19 04:41:00,
2013-01-18 22:43:00,47.6,31.3,29.94,SSW,195,14.0,19.0,53,0.00,,---,0.00,VWS V14.01,2013-01-19 04:43:00,
2013-01-18 22:44:00,47.6,31.3,29.93,South,188,7.0,19.0,53,0.00,,---,0.00,VWS V14.01,2013-01-19 04:44:00,
2013-01-18 22:45:00,47.6,31.3,29.93,South,172,13.0,18.0,53,0.00,,---,0.00,VWS V14.01,2013-01-19 04:45:00,
2013-01-18 22:46:00,47.6,31.3,29.93,South,182,10.0,18.0,53,0.00,,---,0.00,VWS V14.01,2013-01-19 04:46:00,
2013-01-18 22:48:00,47.6,31.3,29.93,SSW,198,16.0,18.0,53,0.00,,---,0.00,VWS V14.01,2013-01-19 04:48:00,
2013-01-18 22:49:00,47.6,31.3,29.93,South,176,11.0,18.0,53,0.00,,---,0.00,VWS V14.01,2013-01-19 04:49:00,
2013-01-18 22:50:00,47.6,31.3,29.93,South,169,11.0,18.0,53,0.00,,---,0.00,VWS V14.01,2013-01-19 04:50:00,
2013-01-18 22:51:00,47.7,31.4,29.93,SSE,168,16.0,19.0,53,0.00,,---,0.00,VWS V14.01,2013-01-19 04:51:00,
2013-01-18 22:54:00,47.7,31.4,29.93,SSW,198,10.0,19.0,53,0.00,,---,0.00,VWS V14.01,2013-01-19 04:54:00,
2013-01-18 22:55:00,47.7,31.4,29.93,SW,215,15.0,19.0,53,0.00,,---,0.00,VWS V14.01,2013-01-19 04:55:00,
2013-01-18 22:56:00,47.7,31.4,29.93,SSW,205,10.0,19.0,53,0.00,,---,0.00,VWS V14.01,2013-01-19 04:56:00,
2013-01-18 22:59:00,47.6,31.3,29.92,South,181,15.0,19.0,53,0.00,,---,0.00,VWS V14.01,2013-01-19 04:59:00,
2013-01-18 23:00:00,47.6,31.3,29.93,SSW,198,13.0,19.0,53,0.00,,---,0.00,VWS V14.01,2013-01-19 05:00:00,
2013-01-18 23:01:00,47.6,31.3,29.92,SSE,167,9.0,19.0,53,0.00,,---,0.00,VWS V14.01,2013-01-19 05:01:00,
2013-01-18 23:03:00,47.6,31.3,29.92,SSW,209,7.0,19.0,53,0.00,,---,0.00,VWS V14.01,2013-01-19 05:03:00,
2013-01-18 23:06:00,47.4,31.6,29.92,South,170,7.0,19.0,54,0.00,,---,0.00,VWS V14.01,2013-01-19 05:06:00,
2013-01-18 23:07:00,47.4,31.6,29.92,South,183,12.0,19.0,54,0.00,,---,0.00,VWS V14.01,2013-01-19 05:07:00,
2013-01-18 23:09:00,47.4,31.1,29.92,South,186,14.0,19.0,53,0.00,,---,0.00,VWS V14.01,2013-01-19 05:09:00,
2013-01-18 23:11:00,47.4,31.6,29.92,South,170,13.0,19.0,54,0.00,,---,0.00,VWS V14.01,2013-01-19 05:11:00,
2013-01-18 23:12:00,47.4,31.6,29.92,South,181,6.0,19.0,54,0.00,,---,0.00,VWS V14.01,2013-01-19 05:12:00,
2013-01-18 23:14:00,47.4,31.6,29.92,South,176,15.0,19.0,54,0.00,,---,0.00,VWS V14.01,2013-01-19 05:14:00,
2013-01-18 23:16:00,47.4,31.1,29.92,SSW,204,10.0,14.0,53,0.00,,---,0.00,VWS V14.01,2013-01-19 05:16:00,
2013-01-18 23:17:00,47.4,31.6,29.92,SW,214,11.0,14.0,54,0.00,,---,0.00,VWS V14.01,2013-01-19 05:17:00,
2013-01-18 23:30:00,47.4,31.6,29.92,South,179,11.0,19.0,54,0.00,,---,0.00,VWS V14.01,2013-01-19 05:30:00,